<?xml version="1.0" encoding="UTF-8" standalone="no" ?>
<gpx xmlns="http://www.topografix.com/GPX/1/1" xmlns:xsi="http://www.w3.org/2001/XMLSchema-instance" xsi:schemaLocation="http://www.topografix.com/GPX/1/1 http://www.topografix.com/GPX/1/1/gpx.xsd" version="1.1" creator="VisuGPX - https://www.visugpx.com">
  <metadata>
    <name>Rando - Plateau de l'Hermet.</name>
    <desc><![CDATA[Rando vers le très beau village de l'Hermet.]]></desc>
  </metadata>
  <trk>
    <name><![CDATA[22-OCT-21 11:16:40]]></name>
    <trkseg>
      <trkpt lat="44.36378" lon="3.74558">
        <ele>875.42</ele>
        <time>2021-10-22T06:42:55Z</time>
      </trkpt>
      <trkpt lat="44.36381" lon="3.74553">
        <ele>877.82</ele>
        <time>2021-10-22T06:43:00Z</time>
      </trkpt>
      <trkpt lat="44.36384" lon="3.74546">
        <ele>881.67</ele>
        <time>2021-10-22T06:43:05Z</time>
      </trkpt>
      <trkpt lat="44.36385" lon="3.74536">
        <ele>884.55</ele>
        <time>2021-10-22T06:43:12Z</time>
      </trkpt>
      <trkpt lat="44.36383" lon="3.74533">
        <ele>885.03</ele>
        <time>2021-10-22T06:43:14Z</time>
      </trkpt>
      <trkpt lat="44.36379" lon="3.74528">
        <ele>886.95</ele>
        <time>2021-10-22T06:43:20Z</time>
      </trkpt>
      <trkpt lat="44.36378" lon="3.74523">
        <ele>886.95</ele>
        <time>2021-10-22T06:43:23Z</time>
      </trkpt>
      <trkpt lat="44.36377" lon="3.7452">
        <ele>887.43</ele>
        <time>2021-10-22T06:43:25Z</time>
      </trkpt>
      <trkpt lat="44.36375" lon="3.74515">
        <ele>888.4</ele>
        <time>2021-10-22T06:43:29Z</time>
      </trkpt>
      <trkpt lat="44.36372" lon="3.74503">
        <ele>888.4</ele>
        <time>2021-10-22T06:43:36Z</time>
      </trkpt>
      <trkpt lat="44.36369" lon="3.74494">
        <ele>888.4</ele>
        <time>2021-10-22T06:43:42Z</time>
      </trkpt>
      <trkpt lat="44.36368" lon="3.74469">
        <ele>888.88</ele>
        <time>2021-10-22T06:43:55Z</time>
      </trkpt>
      <trkpt lat="44.36369" lon="3.74466">
        <ele>888.4</ele>
        <time>2021-10-22T06:43:57Z</time>
      </trkpt>
      <trkpt lat="44.36366" lon="3.74464">
        <ele>888.4</ele>
        <time>2021-10-22T06:44:02Z</time>
      </trkpt>
      <trkpt lat="44.3635" lon="3.74467">
        <ele>888.4</ele>
        <time>2021-10-22T06:44:13Z</time>
      </trkpt>
      <trkpt lat="44.36349" lon="3.74467">
        <ele>888.4</ele>
        <time>2021-10-22T06:44:14Z</time>
      </trkpt>
      <trkpt lat="44.36345" lon="3.74469">
        <ele>888.88</ele>
        <time>2021-10-22T06:44:17Z</time>
      </trkpt>
      <trkpt lat="44.3634" lon="3.74462">
        <ele>888.88</ele>
        <time>2021-10-22T06:44:21Z</time>
      </trkpt>
      <trkpt lat="44.36339" lon="3.74446">
        <ele>888.88</ele>
        <time>2021-10-22T06:44:33Z</time>
      </trkpt>
      <trkpt lat="44.36338" lon="3.74434">
        <ele>886.95</ele>
        <time>2021-10-22T06:44:41Z</time>
      </trkpt>
      <trkpt lat="44.3633" lon="3.7441">
        <ele>884.55</ele>
        <time>2021-10-22T06:44:53Z</time>
      </trkpt>
      <trkpt lat="44.36328" lon="3.74406">
        <ele>883.59</ele>
        <time>2021-10-22T06:44:56Z</time>
      </trkpt>
      <trkpt lat="44.36322" lon="3.74393">
        <ele>880.71</ele>
        <time>2021-10-22T06:45:07Z</time>
      </trkpt>
      <trkpt lat="44.36324" lon="3.74386">
        <ele>880.71</ele>
        <time>2021-10-22T06:45:11Z</time>
      </trkpt>
      <trkpt lat="44.36327" lon="3.74368">
        <ele>881.19</ele>
        <time>2021-10-22T06:45:24Z</time>
      </trkpt>
      <trkpt lat="44.36327" lon="3.74362">
        <ele>881.19</ele>
        <time>2021-10-22T06:45:36Z</time>
      </trkpt>
      <trkpt lat="44.3631" lon="3.74353">
        <ele>882.15</ele>
        <time>2021-10-22T06:45:48Z</time>
      </trkpt>
      <trkpt lat="44.36308" lon="3.74352">
        <ele>881.67</ele>
        <time>2021-10-22T06:45:50Z</time>
      </trkpt>
      <trkpt lat="44.36305" lon="3.7435">
        <ele>881.19</ele>
        <time>2021-10-22T06:45:53Z</time>
      </trkpt>
      <trkpt lat="44.36295" lon="3.74346">
        <ele>880.71</ele>
        <time>2021-10-22T06:45:59Z</time>
      </trkpt>
      <trkpt lat="44.36291" lon="3.74342">
        <ele>880.22</ele>
        <time>2021-10-22T06:46:03Z</time>
      </trkpt>
      <trkpt lat="44.36282" lon="3.74345">
        <ele>879.74</ele>
        <time>2021-10-22T06:46:09Z</time>
      </trkpt>
      <trkpt lat="44.36277" lon="3.74364">
        <ele>880.71</ele>
        <time>2021-10-22T06:46:23Z</time>
      </trkpt>
      <trkpt lat="44.36278" lon="3.74366">
        <ele>880.71</ele>
        <time>2021-10-22T06:46:24Z</time>
      </trkpt>
      <trkpt lat="44.36276" lon="3.74378">
        <ele>881.19</ele>
        <time>2021-10-22T06:46:34Z</time>
      </trkpt>
      <trkpt lat="44.3627" lon="3.7439">
        <ele>881.67</ele>
        <time>2021-10-22T06:46:46Z</time>
      </trkpt>
      <trkpt lat="44.36271" lon="3.74388">
        <ele>881.19</ele>
        <time>2021-10-22T06:47:08Z</time>
      </trkpt>
      <trkpt lat="44.36271" lon="3.74387">
        <ele>881.19</ele>
        <time>2021-10-22T06:47:09Z</time>
      </trkpt>
      <trkpt lat="44.36277" lon="3.74378">
        <ele>880.71</ele>
        <time>2021-10-22T06:47:16Z</time>
      </trkpt>
      <trkpt lat="44.3628" lon="3.7437">
        <ele>880.22</ele>
        <time>2021-10-22T06:47:30Z</time>
      </trkpt>
      <trkpt lat="44.36278" lon="3.74367">
        <ele>880.22</ele>
        <time>2021-10-22T06:47:47Z</time>
      </trkpt>
      <trkpt lat="44.3627" lon="3.74358">
        <ele>881.67</ele>
        <time>2021-10-22T06:47:56Z</time>
      </trkpt>
      <trkpt lat="44.36267" lon="3.74348">
        <ele>882.63</ele>
        <time>2021-10-22T06:48:02Z</time>
      </trkpt>
      <trkpt lat="44.36261" lon="3.74343">
        <ele>883.59</ele>
        <time>2021-10-22T06:48:06Z</time>
      </trkpt>
      <trkpt lat="44.36258" lon="3.74339">
        <ele>884.55</ele>
        <time>2021-10-22T06:48:09Z</time>
      </trkpt>
      <trkpt lat="44.36255" lon="3.74337">
        <ele>884.55</ele>
        <time>2021-10-22T06:48:12Z</time>
      </trkpt>
      <trkpt lat="44.36251" lon="3.74337">
        <ele>885.99</ele>
        <time>2021-10-22T06:48:17Z</time>
      </trkpt>
      <trkpt lat="44.36248" lon="3.7434">
        <ele>886.47</ele>
        <time>2021-10-22T06:48:21Z</time>
      </trkpt>
      <trkpt lat="44.36245" lon="3.74341">
        <ele>886.95</ele>
        <time>2021-10-22T06:48:25Z</time>
      </trkpt>
      <trkpt lat="44.36235" lon="3.74347">
        <ele>889.84</ele>
        <time>2021-10-22T06:48:38Z</time>
      </trkpt>
      <trkpt lat="44.3623" lon="3.74346">
        <ele>892.24</ele>
        <time>2021-10-22T06:48:52Z</time>
      </trkpt>
      <trkpt lat="44.36231" lon="3.74338">
        <ele>893.2</ele>
        <time>2021-10-22T06:49:05Z</time>
      </trkpt>
      <trkpt lat="44.36237" lon="3.74321">
        <ele>894.16</ele>
        <time>2021-10-22T06:49:17Z</time>
      </trkpt>
      <trkpt lat="44.36238" lon="3.74316">
        <ele>894.16</ele>
        <time>2021-10-22T06:49:21Z</time>
      </trkpt>
      <trkpt lat="44.36242" lon="3.74299">
        <ele>896.57</ele>
        <time>2021-10-22T06:49:35Z</time>
      </trkpt>
      <trkpt lat="44.36246" lon="3.7428">
        <ele>898.97</ele>
        <time>2021-10-22T06:49:48Z</time>
      </trkpt>
      <trkpt lat="44.36242" lon="3.7428">
        <ele>899.93</ele>
        <time>2021-10-22T06:49:54Z</time>
      </trkpt>
      <trkpt lat="44.36234" lon="3.7429">
        <ele>901.85</ele>
        <time>2021-10-22T06:50:06Z</time>
      </trkpt>
      <trkpt lat="44.36225" lon="3.743">
        <ele>903.78</ele>
        <time>2021-10-22T06:50:18Z</time>
      </trkpt>
      <trkpt lat="44.36221" lon="3.74304">
        <ele>904.74</ele>
        <time>2021-10-22T06:50:23Z</time>
      </trkpt>
      <trkpt lat="44.36218" lon="3.74306">
        <ele>905.22</ele>
        <time>2021-10-22T06:50:27Z</time>
      </trkpt>
      <trkpt lat="44.36209" lon="3.74317">
        <ele>906.66</ele>
        <time>2021-10-22T06:50:38Z</time>
      </trkpt>
      <trkpt lat="44.36208" lon="3.74318">
        <ele>907.14</ele>
        <time>2021-10-22T06:50:39Z</time>
      </trkpt>
      <trkpt lat="44.36201" lon="3.74325">
        <ele>907.62</ele>
        <time>2021-10-22T06:50:49Z</time>
      </trkpt>
      <trkpt lat="44.36197" lon="3.74332">
        <ele>908.1</ele>
        <time>2021-10-22T06:50:55Z</time>
      </trkpt>
      <trkpt lat="44.36193" lon="3.74339">
        <ele>908.58</ele>
        <time>2021-10-22T06:51:00Z</time>
      </trkpt>
      <trkpt lat="44.3619" lon="3.74348">
        <ele>910.03</ele>
        <time>2021-10-22T06:51:12Z</time>
      </trkpt>
      <trkpt lat="44.36188" lon="3.74349">
        <ele>909.54</ele>
        <time>2021-10-22T06:51:23Z</time>
      </trkpt>
      <trkpt lat="44.36185" lon="3.74351">
        <ele>910.51</ele>
        <time>2021-10-22T06:51:27Z</time>
      </trkpt>
      <trkpt lat="44.36179" lon="3.7436">
        <ele>910.99</ele>
        <time>2021-10-22T06:51:35Z</time>
      </trkpt>
      <trkpt lat="44.3617" lon="3.74368">
        <ele>912.91</ele>
        <time>2021-10-22T06:51:47Z</time>
      </trkpt>
      <trkpt lat="44.36167" lon="3.74369">
        <ele>912.91</ele>
        <time>2021-10-22T06:51:53Z</time>
      </trkpt>
      <trkpt lat="44.36155" lon="3.74372">
        <ele>915.31</ele>
        <time>2021-10-22T06:52:06Z</time>
      </trkpt>
      <trkpt lat="44.36152" lon="3.74373">
        <ele>915.79</ele>
        <time>2021-10-22T06:52:10Z</time>
      </trkpt>
      <trkpt lat="44.36143" lon="3.74379">
        <ele>917.72</ele>
        <time>2021-10-22T06:52:21Z</time>
      </trkpt>
      <trkpt lat="44.36135" lon="3.7438">
        <ele>919.16</ele>
        <time>2021-10-22T06:52:31Z</time>
      </trkpt>
      <trkpt lat="44.36124" lon="3.74379">
        <ele>920.6</ele>
        <time>2021-10-22T06:52:41Z</time>
      </trkpt>
      <trkpt lat="44.36121" lon="3.74378">
        <ele>921.56</ele>
        <time>2021-10-22T06:52:44Z</time>
      </trkpt>
      <trkpt lat="44.36116" lon="3.74379">
        <ele>922.52</ele>
        <time>2021-10-22T06:52:49Z</time>
      </trkpt>
      <trkpt lat="44.36113" lon="3.7438">
        <ele>923</ele>
        <time>2021-10-22T06:52:54Z</time>
      </trkpt>
      <trkpt lat="44.3611" lon="3.74381">
        <ele>923.96</ele>
        <time>2021-10-22T06:52:57Z</time>
      </trkpt>
      <trkpt lat="44.36104" lon="3.74382">
        <ele>924.93</ele>
        <time>2021-10-22T06:53:02Z</time>
      </trkpt>
      <trkpt lat="44.36099" lon="3.74383">
        <ele>925.41</ele>
        <time>2021-10-22T06:53:06Z</time>
      </trkpt>
      <trkpt lat="44.36093" lon="3.74384">
        <ele>926.85</ele>
        <time>2021-10-22T06:53:13Z</time>
      </trkpt>
      <trkpt lat="44.36088" lon="3.74383">
        <ele>927.81</ele>
        <time>2021-10-22T06:53:18Z</time>
      </trkpt>
      <trkpt lat="44.36081" lon="3.74379">
        <ele>928.29</ele>
        <time>2021-10-22T06:53:24Z</time>
      </trkpt>
      <trkpt lat="44.36078" lon="3.74375">
        <ele>928.29</ele>
        <time>2021-10-22T06:53:27Z</time>
      </trkpt>
      <trkpt lat="44.36074" lon="3.74369">
        <ele>928.29</ele>
        <time>2021-10-22T06:53:32Z</time>
      </trkpt>
      <trkpt lat="44.36068" lon="3.74361">
        <ele>929.25</ele>
        <time>2021-10-22T06:53:43Z</time>
      </trkpt>
      <trkpt lat="44.36067" lon="3.74358">
        <ele>929.25</ele>
        <time>2021-10-22T06:53:45Z</time>
      </trkpt>
      <trkpt lat="44.3607" lon="3.74359">
        <ele>930.21</ele>
        <time>2021-10-22T06:53:50Z</time>
      </trkpt>
      <trkpt lat="44.36063" lon="3.7435">
        <ele>933.1</ele>
        <time>2021-10-22T06:54:02Z</time>
      </trkpt>
      <trkpt lat="44.36059" lon="3.74344">
        <ele>933.58</ele>
        <time>2021-10-22T06:54:13Z</time>
      </trkpt>
      <trkpt lat="44.36057" lon="3.74342">
        <ele>933.58</ele>
        <time>2021-10-22T06:54:17Z</time>
      </trkpt>
      <trkpt lat="44.36057" lon="3.7434">
        <ele>934.06</ele>
        <time>2021-10-22T06:54:32Z</time>
      </trkpt>
      <trkpt lat="44.36057" lon="3.7434">
        <ele>933.58</ele>
        <time>2021-10-22T06:54:49Z</time>
      </trkpt>
      <trkpt lat="44.36057" lon="3.7434">
        <ele>933.1</ele>
        <time>2021-10-22T06:55:15Z</time>
      </trkpt>
      <trkpt lat="44.36057" lon="3.74339">
        <ele>933.1</ele>
        <time>2021-10-22T06:55:46Z</time>
      </trkpt>
      <trkpt lat="44.36057" lon="3.74339">
        <ele>932.62</ele>
        <time>2021-10-22T06:56:19Z</time>
      </trkpt>
      <trkpt lat="44.36057" lon="3.74339">
        <ele>932.62</ele>
        <time>2021-10-22T06:56:56Z</time>
      </trkpt>
      <trkpt lat="44.36057" lon="3.74339">
        <ele>932.14</ele>
        <time>2021-10-22T06:57:26Z</time>
      </trkpt>
      <trkpt lat="44.36056" lon="3.74339">
        <ele>932.14</ele>
        <time>2021-10-22T06:57:52Z</time>
      </trkpt>
      <trkpt lat="44.36056" lon="3.74339">
        <ele>932.14</ele>
        <time>2021-10-22T06:58:10Z</time>
      </trkpt>
      <trkpt lat="44.36056" lon="3.74341">
        <ele>931.65</ele>
        <time>2021-10-22T06:58:28Z</time>
      </trkpt>
      <trkpt lat="44.36056" lon="3.74341">
        <ele>932.14</ele>
        <time>2021-10-22T06:58:52Z</time>
      </trkpt>
      <trkpt lat="44.36055" lon="3.74342">
        <ele>931.17</ele>
        <time>2021-10-22T06:59:10Z</time>
      </trkpt>
      <trkpt lat="44.36059" lon="3.74348">
        <ele>929.73</ele>
        <time>2021-10-22T06:59:19Z</time>
      </trkpt>
      <trkpt lat="44.36066" lon="3.7436">
        <ele>927.81</ele>
        <time>2021-10-22T06:59:29Z</time>
      </trkpt>
      <trkpt lat="44.36074" lon="3.74364">
        <ele>926.85</ele>
        <time>2021-10-22T06:59:38Z</time>
      </trkpt>
      <trkpt lat="44.3608" lon="3.74368">
        <ele>928.29</ele>
        <time>2021-10-22T06:59:44Z</time>
      </trkpt>
      <trkpt lat="44.36089" lon="3.74366">
        <ele>929.25</ele>
        <time>2021-10-22T06:59:53Z</time>
      </trkpt>
      <trkpt lat="44.36093" lon="3.74361">
        <ele>929.73</ele>
        <time>2021-10-22T06:59:57Z</time>
      </trkpt>
      <trkpt lat="44.36102" lon="3.74345">
        <ele>931.65</ele>
        <time>2021-10-22T07:00:12Z</time>
      </trkpt>
      <trkpt lat="44.36104" lon="3.74339">
        <ele>931.65</ele>
        <time>2021-10-22T07:00:19Z</time>
      </trkpt>
      <trkpt lat="44.36104" lon="3.74335">
        <ele>932.62</ele>
        <time>2021-10-22T07:00:22Z</time>
      </trkpt>
      <trkpt lat="44.36097" lon="3.74331">
        <ele>934.06</ele>
        <time>2021-10-22T07:00:28Z</time>
      </trkpt>
      <trkpt lat="44.3609" lon="3.74323">
        <ele>935.5</ele>
        <time>2021-10-22T07:00:40Z</time>
      </trkpt>
      <trkpt lat="44.36094" lon="3.74317">
        <ele>936.46</ele>
        <time>2021-10-22T07:00:45Z</time>
      </trkpt>
      <trkpt lat="44.361" lon="3.74307">
        <ele>938.38</ele>
        <time>2021-10-22T07:00:58Z</time>
      </trkpt>
      <trkpt lat="44.36107" lon="3.74295">
        <ele>941.75</ele>
        <time>2021-10-22T07:01:14Z</time>
      </trkpt>
      <trkpt lat="44.361" lon="3.74296">
        <ele>942.71</ele>
        <time>2021-10-22T07:01:21Z</time>
      </trkpt>
      <trkpt lat="44.36094" lon="3.74297">
        <ele>943.67</ele>
        <time>2021-10-22T07:01:26Z</time>
      </trkpt>
      <trkpt lat="44.36087" lon="3.74292">
        <ele>946.07</ele>
        <time>2021-10-22T07:01:37Z</time>
      </trkpt>
      <trkpt lat="44.36088" lon="3.74291">
        <ele>946.56</ele>
        <time>2021-10-22T07:01:39Z</time>
      </trkpt>
      <trkpt lat="44.36095" lon="3.74285">
        <ele>947.52</ele>
        <time>2021-10-22T07:01:47Z</time>
      </trkpt>
      <trkpt lat="44.36097" lon="3.74281">
        <ele>948</ele>
        <time>2021-10-22T07:01:51Z</time>
      </trkpt>
      <trkpt lat="44.36099" lon="3.74278">
        <ele>948.48</ele>
        <time>2021-10-22T07:01:54Z</time>
      </trkpt>
      <trkpt lat="44.36101" lon="3.74272">
        <ele>949.44</ele>
        <time>2021-10-22T07:01:59Z</time>
      </trkpt>
      <trkpt lat="44.36108" lon="3.74261">
        <ele>951.36</ele>
        <time>2021-10-22T07:02:10Z</time>
      </trkpt>
      <trkpt lat="44.36111" lon="3.74255">
        <ele>952.8</ele>
        <time>2021-10-22T07:02:17Z</time>
      </trkpt>
      <trkpt lat="44.36114" lon="3.74248">
        <ele>953.77</ele>
        <time>2021-10-22T07:02:24Z</time>
      </trkpt>
      <trkpt lat="44.36115" lon="3.74245">
        <ele>955.21</ele>
        <time>2021-10-22T07:02:28Z</time>
      </trkpt>
      <trkpt lat="44.36118" lon="3.74232">
        <ele>956.17</ele>
        <time>2021-10-22T07:02:41Z</time>
      </trkpt>
      <trkpt lat="44.36123" lon="3.74221">
        <ele>959.05</ele>
        <time>2021-10-22T07:02:52Z</time>
      </trkpt>
      <trkpt lat="44.36124" lon="3.74218">
        <ele>959.05</ele>
        <time>2021-10-22T07:02:54Z</time>
      </trkpt>
      <trkpt lat="44.36125" lon="3.74213">
        <ele>959.53</ele>
        <time>2021-10-22T07:02:58Z</time>
      </trkpt>
      <trkpt lat="44.36127" lon="3.74211">
        <ele>960.49</ele>
        <time>2021-10-22T07:03:01Z</time>
      </trkpt>
      <trkpt lat="44.36129" lon="3.74206">
        <ele>960.98</ele>
        <time>2021-10-22T07:03:05Z</time>
      </trkpt>
      <trkpt lat="44.36131" lon="3.742">
        <ele>962.42</ele>
        <time>2021-10-22T07:03:12Z</time>
      </trkpt>
      <trkpt lat="44.36138" lon="3.7419">
        <ele>963.86</ele>
        <time>2021-10-22T07:03:25Z</time>
      </trkpt>
      <trkpt lat="44.36139" lon="3.74187">
        <ele>964.82</ele>
        <time>2021-10-22T07:03:45Z</time>
      </trkpt>
      <trkpt lat="44.36142" lon="3.74177">
        <ele>965.78</ele>
        <time>2021-10-22T07:03:55Z</time>
      </trkpt>
      <trkpt lat="44.36142" lon="3.74176">
        <ele>965.78</ele>
        <time>2021-10-22T07:03:56Z</time>
      </trkpt>
      <trkpt lat="44.36146" lon="3.74166">
        <ele>967.7</ele>
        <time>2021-10-22T07:04:07Z</time>
      </trkpt>
      <trkpt lat="44.3615" lon="3.74153">
        <ele>969.63</ele>
        <time>2021-10-22T07:04:18Z</time>
      </trkpt>
      <trkpt lat="44.36153" lon="3.74144">
        <ele>971.55</ele>
        <time>2021-10-22T07:04:26Z</time>
      </trkpt>
      <trkpt lat="44.36156" lon="3.74138">
        <ele>972.51</ele>
        <time>2021-10-22T07:04:32Z</time>
      </trkpt>
      <trkpt lat="44.36158" lon="3.74133">
        <ele>972.99</ele>
        <time>2021-10-22T07:04:36Z</time>
      </trkpt>
      <trkpt lat="44.36164" lon="3.74123">
        <ele>975.39</ele>
        <time>2021-10-22T07:04:48Z</time>
      </trkpt>
      <trkpt lat="44.36169" lon="3.74116">
        <ele>977.32</ele>
        <time>2021-10-22T07:04:56Z</time>
      </trkpt>
      <trkpt lat="44.36179" lon="3.74103">
        <ele>980.2</ele>
        <time>2021-10-22T07:05:12Z</time>
      </trkpt>
      <trkpt lat="44.36177" lon="3.741">
        <ele>981.16</ele>
        <time>2021-10-22T07:05:16Z</time>
      </trkpt>
      <trkpt lat="44.36175" lon="3.74098">
        <ele>981.64</ele>
        <time>2021-10-22T07:05:18Z</time>
      </trkpt>
      <trkpt lat="44.36164" lon="3.741">
        <ele>983.09</ele>
        <time>2021-10-22T07:05:30Z</time>
      </trkpt>
      <trkpt lat="44.36161" lon="3.74104">
        <ele>984.05</ele>
        <time>2021-10-22T07:05:35Z</time>
      </trkpt>
      <trkpt lat="44.36158" lon="3.74107">
        <ele>984.53</ele>
        <time>2021-10-22T07:05:39Z</time>
      </trkpt>
      <trkpt lat="44.36149" lon="3.74114">
        <ele>985.97</ele>
        <time>2021-10-22T07:05:49Z</time>
      </trkpt>
      <trkpt lat="44.36147" lon="3.74114">
        <ele>985.97</ele>
        <time>2021-10-22T07:05:52Z</time>
      </trkpt>
      <trkpt lat="44.36139" lon="3.74116">
        <ele>986.93</ele>
        <time>2021-10-22T07:05:58Z</time>
      </trkpt>
      <trkpt lat="44.36137" lon="3.74116">
        <ele>987.41</ele>
        <time>2021-10-22T07:06:01Z</time>
      </trkpt>
      <trkpt lat="44.36134" lon="3.74117">
        <ele>987.89</ele>
        <time>2021-10-22T07:06:05Z</time>
      </trkpt>
      <trkpt lat="44.36131" lon="3.74119">
        <ele>988.37</ele>
        <time>2021-10-22T07:06:09Z</time>
      </trkpt>
      <trkpt lat="44.36127" lon="3.74121">
        <ele>989.33</ele>
        <time>2021-10-22T07:06:13Z</time>
      </trkpt>
      <trkpt lat="44.36118" lon="3.74126">
        <ele>990.78</ele>
        <time>2021-10-22T07:06:23Z</time>
      </trkpt>
      <trkpt lat="44.36109" lon="3.74128">
        <ele>992.22</ele>
        <time>2021-10-22T07:06:31Z</time>
      </trkpt>
      <trkpt lat="44.36104" lon="3.74129">
        <ele>993.66</ele>
        <time>2021-10-22T07:06:37Z</time>
      </trkpt>
      <trkpt lat="44.36096" lon="3.74135">
        <ele>994.14</ele>
        <time>2021-10-22T07:06:48Z</time>
      </trkpt>
      <trkpt lat="44.3609" lon="3.74136">
        <ele>995.58</ele>
        <time>2021-10-22T07:06:55Z</time>
      </trkpt>
      <trkpt lat="44.36086" lon="3.74138">
        <ele>996.06</ele>
        <time>2021-10-22T07:06:59Z</time>
      </trkpt>
      <trkpt lat="44.36077" lon="3.74139">
        <ele>997.99</ele>
        <time>2021-10-22T07:07:13Z</time>
      </trkpt>
      <trkpt lat="44.36069" lon="3.74144">
        <ele>999.43</ele>
        <time>2021-10-22T07:07:21Z</time>
      </trkpt>
      <trkpt lat="44.36068" lon="3.74145">
        <ele>999.91</ele>
        <time>2021-10-22T07:07:38Z</time>
      </trkpt>
      <trkpt lat="44.36068" lon="3.74145">
        <ele>999.43</ele>
        <time>2021-10-22T07:07:45Z</time>
      </trkpt>
      <trkpt lat="44.36059" lon="3.74147">
        <ele>1001.83</ele>
        <time>2021-10-22T07:07:56Z</time>
      </trkpt>
      <trkpt lat="44.36057" lon="3.74147">
        <ele>1001.83</ele>
        <time>2021-10-22T07:07:58Z</time>
      </trkpt>
      <trkpt lat="44.3605" lon="3.74149">
        <ele>1002.79</ele>
        <time>2021-10-22T07:08:04Z</time>
      </trkpt>
      <trkpt lat="44.36042" lon="3.74149">
        <ele>1003.75</ele>
        <time>2021-10-22T07:08:13Z</time>
      </trkpt>
      <trkpt lat="44.36031" lon="3.74147">
        <ele>1005.68</ele>
        <time>2021-10-22T07:08:23Z</time>
      </trkpt>
      <trkpt lat="44.36022" lon="3.74147">
        <ele>1007.12</ele>
        <time>2021-10-22T07:08:33Z</time>
      </trkpt>
      <trkpt lat="44.36019" lon="3.74146">
        <ele>1007.12</ele>
        <time>2021-10-22T07:08:36Z</time>
      </trkpt>
      <trkpt lat="44.36003" lon="3.74141">
        <ele>1009.04</ele>
        <time>2021-10-22T07:08:50Z</time>
      </trkpt>
      <trkpt lat="44.35999" lon="3.74137">
        <ele>1009.52</ele>
        <time>2021-10-22T07:08:55Z</time>
      </trkpt>
      <trkpt lat="44.35989" lon="3.74133">
        <ele>1010.48</ele>
        <time>2021-10-22T07:09:07Z</time>
      </trkpt>
      <trkpt lat="44.3599" lon="3.74133">
        <ele>1010</ele>
        <time>2021-10-22T07:09:11Z</time>
      </trkpt>
      <trkpt lat="44.3599" lon="3.74134">
        <ele>1010</ele>
        <time>2021-10-22T07:09:18Z</time>
      </trkpt>
      <trkpt lat="44.35982" lon="3.74131">
        <ele>1010.96</ele>
        <time>2021-10-22T07:09:27Z</time>
      </trkpt>
      <trkpt lat="44.35978" lon="3.74131">
        <ele>1011.44</ele>
        <time>2021-10-22T07:09:31Z</time>
      </trkpt>
      <trkpt lat="44.35966" lon="3.7413">
        <ele>1013.37</ele>
        <time>2021-10-22T07:09:44Z</time>
      </trkpt>
      <trkpt lat="44.35957" lon="3.7413">
        <ele>1015.77</ele>
        <time>2021-10-22T07:09:56Z</time>
      </trkpt>
      <trkpt lat="44.3595" lon="3.74127">
        <ele>1017.21</ele>
        <time>2021-10-22T07:10:07Z</time>
      </trkpt>
      <trkpt lat="44.35944" lon="3.74123">
        <ele>1018.17</ele>
        <time>2021-10-22T07:10:16Z</time>
      </trkpt>
      <trkpt lat="44.3594" lon="3.74118">
        <ele>1018.65</ele>
        <time>2021-10-22T07:10:21Z</time>
      </trkpt>
      <trkpt lat="44.35936" lon="3.74111">
        <ele>1020.58</ele>
        <time>2021-10-22T07:10:31Z</time>
      </trkpt>
      <trkpt lat="44.35933" lon="3.74106">
        <ele>1020.58</ele>
        <time>2021-10-22T07:10:36Z</time>
      </trkpt>
      <trkpt lat="44.35925" lon="3.741">
        <ele>1022.02</ele>
        <time>2021-10-22T07:10:49Z</time>
      </trkpt>
      <trkpt lat="44.35925" lon="3.741">
        <ele>1022.02</ele>
        <time>2021-10-22T07:10:55Z</time>
      </trkpt>
      <trkpt lat="44.35921" lon="3.74099">
        <ele>1022.98</ele>
        <time>2021-10-22T07:10:59Z</time>
      </trkpt>
      <trkpt lat="44.35912" lon="3.74095">
        <ele>1024.42</ele>
        <time>2021-10-22T07:11:10Z</time>
      </trkpt>
      <trkpt lat="44.35905" lon="3.7409">
        <ele>1025.38</ele>
        <time>2021-10-22T07:11:19Z</time>
      </trkpt>
      <trkpt lat="44.35902" lon="3.74089">
        <ele>1025.86</ele>
        <time>2021-10-22T07:11:23Z</time>
      </trkpt>
      <trkpt lat="44.35899" lon="3.74085">
        <ele>1026.83</ele>
        <time>2021-10-22T07:11:29Z</time>
      </trkpt>
      <trkpt lat="44.35895" lon="3.74086">
        <ele>1026.83</ele>
        <time>2021-10-22T07:11:33Z</time>
      </trkpt>
      <trkpt lat="44.3589" lon="3.74082">
        <ele>1028.75</ele>
        <time>2021-10-22T07:11:40Z</time>
      </trkpt>
      <trkpt lat="44.35888" lon="3.74079">
        <ele>1027.79</ele>
        <time>2021-10-22T07:11:42Z</time>
      </trkpt>
      <trkpt lat="44.35882" lon="3.74073">
        <ele>1029.71</ele>
        <time>2021-10-22T07:11:53Z</time>
      </trkpt>
      <trkpt lat="44.35879" lon="3.7407">
        <ele>1029.71</ele>
        <time>2021-10-22T07:11:58Z</time>
      </trkpt>
      <trkpt lat="44.35869" lon="3.74066">
        <ele>1031.63</ele>
        <time>2021-10-22T07:12:09Z</time>
      </trkpt>
      <trkpt lat="44.35864" lon="3.74064">
        <ele>1032.11</ele>
        <time>2021-10-22T07:12:21Z</time>
      </trkpt>
      <trkpt lat="44.35864" lon="3.74064">
        <ele>1032.11</ele>
        <time>2021-10-22T07:12:50Z</time>
      </trkpt>
      <trkpt lat="44.35861" lon="3.74061">
        <ele>1032.59</ele>
        <time>2021-10-22T07:13:09Z</time>
      </trkpt>
      <trkpt lat="44.35858" lon="3.74059">
        <ele>1033.07</ele>
        <time>2021-10-22T07:13:18Z</time>
      </trkpt>
      <trkpt lat="44.35855" lon="3.74059">
        <ele>1033.07</ele>
        <time>2021-10-22T07:13:20Z</time>
      </trkpt>
      <trkpt lat="44.3585" lon="3.74058">
        <ele>1034.52</ele>
        <time>2021-10-22T07:13:28Z</time>
      </trkpt>
      <trkpt lat="44.35845" lon="3.74053">
        <ele>1035.48</ele>
        <time>2021-10-22T07:13:36Z</time>
      </trkpt>
      <trkpt lat="44.35842" lon="3.7405">
        <ele>1035.48</ele>
        <time>2021-10-22T07:13:40Z</time>
      </trkpt>
      <trkpt lat="44.35837" lon="3.74042">
        <ele>1036.92</ele>
        <time>2021-10-22T07:13:49Z</time>
      </trkpt>
      <trkpt lat="44.35835" lon="3.74039">
        <ele>1037.4</ele>
        <time>2021-10-22T07:13:52Z</time>
      </trkpt>
      <trkpt lat="44.35823" lon="3.74033">
        <ele>1039.32</ele>
        <time>2021-10-22T07:14:05Z</time>
      </trkpt>
      <trkpt lat="44.35816" lon="3.74028">
        <ele>1040.28</ele>
        <time>2021-10-22T07:14:15Z</time>
      </trkpt>
      <trkpt lat="44.35814" lon="3.74027">
        <ele>1041.25</ele>
        <time>2021-10-22T07:14:17Z</time>
      </trkpt>
      <trkpt lat="44.3581" lon="3.74026">
        <ele>1041.25</ele>
        <time>2021-10-22T07:14:22Z</time>
      </trkpt>
      <trkpt lat="44.35798" lon="3.74025">
        <ele>1042.21</ele>
        <time>2021-10-22T07:14:33Z</time>
      </trkpt>
      <trkpt lat="44.35793" lon="3.74027">
        <ele>1042.69</ele>
        <time>2021-10-22T07:14:38Z</time>
      </trkpt>
      <trkpt lat="44.35788" lon="3.74028">
        <ele>1042.69</ele>
        <time>2021-10-22T07:14:43Z</time>
      </trkpt>
      <trkpt lat="44.35778" lon="3.74029">
        <ele>1044.61</ele>
        <time>2021-10-22T07:14:52Z</time>
      </trkpt>
      <trkpt lat="44.35768" lon="3.74031">
        <ele>1047.01</ele>
        <time>2021-10-22T07:15:05Z</time>
      </trkpt>
      <trkpt lat="44.35762" lon="3.74036">
        <ele>1047.49</ele>
        <time>2021-10-22T07:15:10Z</time>
      </trkpt>
      <trkpt lat="44.35756" lon="3.74042">
        <ele>1047.97</ele>
        <time>2021-10-22T07:15:17Z</time>
      </trkpt>
      <trkpt lat="44.35748" lon="3.74045">
        <ele>1049.9</ele>
        <time>2021-10-22T07:15:28Z</time>
      </trkpt>
      <trkpt lat="44.35743" lon="3.74048">
        <ele>1050.38</ele>
        <time>2021-10-22T07:15:33Z</time>
      </trkpt>
      <trkpt lat="44.3574" lon="3.74049">
        <ele>1051.34</ele>
        <time>2021-10-22T07:15:37Z</time>
      </trkpt>
      <trkpt lat="44.35738" lon="3.7405">
        <ele>1051.34</ele>
        <time>2021-10-22T07:15:39Z</time>
      </trkpt>
      <trkpt lat="44.35734" lon="3.74051">
        <ele>1052.78</ele>
        <time>2021-10-22T07:15:44Z</time>
      </trkpt>
      <trkpt lat="44.35731" lon="3.7405">
        <ele>1053.26</ele>
        <time>2021-10-22T07:15:47Z</time>
      </trkpt>
      <trkpt lat="44.35728" lon="3.74054">
        <ele>1053.74</ele>
        <time>2021-10-22T07:15:52Z</time>
      </trkpt>
      <trkpt lat="44.35722" lon="3.74055">
        <ele>1055.18</ele>
        <time>2021-10-22T07:16:00Z</time>
      </trkpt>
      <trkpt lat="44.35719" lon="3.74057">
        <ele>1055.67</ele>
        <time>2021-10-22T07:16:03Z</time>
      </trkpt>
      <trkpt lat="44.35711" lon="3.74057">
        <ele>1057.59</ele>
        <time>2021-10-22T07:16:14Z</time>
      </trkpt>
      <trkpt lat="44.35708" lon="3.74055">
        <ele>1058.55</ele>
        <time>2021-10-22T07:16:17Z</time>
      </trkpt>
      <trkpt lat="44.35704" lon="3.74055">
        <ele>1058.55</ele>
        <time>2021-10-22T07:16:21Z</time>
      </trkpt>
      <trkpt lat="44.35699" lon="3.74057">
        <ele>1059.51</ele>
        <time>2021-10-22T07:16:28Z</time>
      </trkpt>
      <trkpt lat="44.35696" lon="3.74058">
        <ele>1060.95</ele>
        <time>2021-10-22T07:16:32Z</time>
      </trkpt>
      <trkpt lat="44.35691" lon="3.7406">
        <ele>1061.43</ele>
        <time>2021-10-22T07:16:37Z</time>
      </trkpt>
      <trkpt lat="44.35685" lon="3.74058">
        <ele>1062.39</ele>
        <time>2021-10-22T07:16:44Z</time>
      </trkpt>
      <trkpt lat="44.35686" lon="3.74051">
        <ele>1062.87</ele>
        <time>2021-10-22T07:16:49Z</time>
      </trkpt>
      <trkpt lat="44.35694" lon="3.74044">
        <ele>1064.32</ele>
        <time>2021-10-22T07:17:01Z</time>
      </trkpt>
      <trkpt lat="44.35694" lon="3.74043">
        <ele>1064.8</ele>
        <time>2021-10-22T07:17:02Z</time>
      </trkpt>
      <trkpt lat="44.35699" lon="3.74042">
        <ele>1064.8</ele>
        <time>2021-10-22T07:17:07Z</time>
      </trkpt>
      <trkpt lat="44.35707" lon="3.74035">
        <ele>1066.24</ele>
        <time>2021-10-22T07:17:17Z</time>
      </trkpt>
      <trkpt lat="44.35705" lon="3.74033">
        <ele>1067.2</ele>
        <time>2021-10-22T07:17:20Z</time>
      </trkpt>
      <trkpt lat="44.35701" lon="3.74034">
        <ele>1067.68</ele>
        <time>2021-10-22T07:17:24Z</time>
      </trkpt>
      <trkpt lat="44.35689" lon="3.74035">
        <ele>1068.64</ele>
        <time>2021-10-22T07:17:36Z</time>
      </trkpt>
      <trkpt lat="44.35686" lon="3.74036">
        <ele>1068.64</ele>
        <time>2021-10-22T07:17:40Z</time>
      </trkpt>
      <trkpt lat="44.35683" lon="3.74035">
        <ele>1069.6</ele>
        <time>2021-10-22T07:17:43Z</time>
      </trkpt>
      <trkpt lat="44.35676" lon="3.74037">
        <ele>1070.08</ele>
        <time>2021-10-22T07:17:50Z</time>
      </trkpt>
      <trkpt lat="44.35667" lon="3.74039">
        <ele>1071.05</ele>
        <time>2021-10-22T07:18:01Z</time>
      </trkpt>
      <trkpt lat="44.35657" lon="3.74042">
        <ele>1072.97</ele>
        <time>2021-10-22T07:18:12Z</time>
      </trkpt>
      <trkpt lat="44.35656" lon="3.74042">
        <ele>1072.97</ele>
        <time>2021-10-22T07:18:13Z</time>
      </trkpt>
      <trkpt lat="44.35655" lon="3.74042">
        <ele>1073.45</ele>
        <time>2021-10-22T07:18:15Z</time>
      </trkpt>
      <trkpt lat="44.35653" lon="3.74043">
        <ele>1073.45</ele>
        <time>2021-10-22T07:18:17Z</time>
      </trkpt>
      <trkpt lat="44.35642" lon="3.74044">
        <ele>1075.37</ele>
        <time>2021-10-22T07:18:30Z</time>
      </trkpt>
      <trkpt lat="44.35641" lon="3.74044">
        <ele>1075.85</ele>
        <time>2021-10-22T07:18:31Z</time>
      </trkpt>
      <trkpt lat="44.35637" lon="3.74043">
        <ele>1076.81</ele>
        <time>2021-10-22T07:18:36Z</time>
      </trkpt>
      <trkpt lat="44.35632" lon="3.74043">
        <ele>1077.29</ele>
        <time>2021-10-22T07:18:42Z</time>
      </trkpt>
      <trkpt lat="44.35626" lon="3.74044">
        <ele>1078.26</ele>
        <time>2021-10-22T07:18:47Z</time>
      </trkpt>
      <trkpt lat="44.35625" lon="3.74045">
        <ele>1077.78</ele>
        <time>2021-10-22T07:18:49Z</time>
      </trkpt>
      <trkpt lat="44.35618" lon="3.74045">
        <ele>1079.22</ele>
        <time>2021-10-22T07:18:56Z</time>
      </trkpt>
      <trkpt lat="44.35615" lon="3.74044">
        <ele>1080.18</ele>
        <time>2021-10-22T07:19:00Z</time>
      </trkpt>
      <trkpt lat="44.35611" lon="3.74046">
        <ele>1081.14</ele>
        <time>2021-10-22T07:19:05Z</time>
      </trkpt>
      <trkpt lat="44.35601" lon="3.74048">
        <ele>1083.06</ele>
        <time>2021-10-22T07:19:17Z</time>
      </trkpt>
      <trkpt lat="44.35593" lon="3.74047">
        <ele>1083.54</ele>
        <time>2021-10-22T07:19:25Z</time>
      </trkpt>
      <trkpt lat="44.3559" lon="3.7405">
        <ele>1084.5</ele>
        <time>2021-10-22T07:19:29Z</time>
      </trkpt>
      <trkpt lat="44.35583" lon="3.74056">
        <ele>1085.47</ele>
        <time>2021-10-22T07:19:37Z</time>
      </trkpt>
      <trkpt lat="44.35581" lon="3.74056">
        <ele>1086.43</ele>
        <time>2021-10-22T07:19:40Z</time>
      </trkpt>
      <trkpt lat="44.35578" lon="3.74057">
        <ele>1086.43</ele>
        <time>2021-10-22T07:19:43Z</time>
      </trkpt>
      <trkpt lat="44.35574" lon="3.74058">
        <ele>1087.39</ele>
        <time>2021-10-22T07:19:48Z</time>
      </trkpt>
      <trkpt lat="44.35568" lon="3.74059">
        <ele>1088.35</ele>
        <time>2021-10-22T07:19:55Z</time>
      </trkpt>
      <trkpt lat="44.35562" lon="3.74059">
        <ele>1088.83</ele>
        <time>2021-10-22T07:20:03Z</time>
      </trkpt>
      <trkpt lat="44.35552" lon="3.74059">
        <ele>1090.27</ele>
        <time>2021-10-22T07:20:13Z</time>
      </trkpt>
      <trkpt lat="44.35548" lon="3.74057">
        <ele>1091.23</ele>
        <time>2021-10-22T07:20:18Z</time>
      </trkpt>
      <trkpt lat="44.35543" lon="3.74055">
        <ele>1090.75</ele>
        <time>2021-10-22T07:20:23Z</time>
      </trkpt>
      <trkpt lat="44.3553" lon="3.74059">
        <ele>1091.71</ele>
        <time>2021-10-22T07:20:36Z</time>
      </trkpt>
      <trkpt lat="44.35529" lon="3.7406">
        <ele>1092.2</ele>
        <time>2021-10-22T07:20:38Z</time>
      </trkpt>
      <trkpt lat="44.35526" lon="3.7406">
        <ele>1092.68</ele>
        <time>2021-10-22T07:20:41Z</time>
      </trkpt>
      <trkpt lat="44.3552" lon="3.7406">
        <ele>1093.64</ele>
        <time>2021-10-22T07:20:47Z</time>
      </trkpt>
      <trkpt lat="44.35514" lon="3.74063">
        <ele>1093.64</ele>
        <time>2021-10-22T07:20:57Z</time>
      </trkpt>
      <trkpt lat="44.35514" lon="3.74064">
        <ele>1093.64</ele>
        <time>2021-10-22T07:21:10Z</time>
      </trkpt>
      <trkpt lat="44.35515" lon="3.74064">
        <ele>1093.64</ele>
        <time>2021-10-22T07:21:28Z</time>
      </trkpt>
      <trkpt lat="44.35516" lon="3.74065">
        <ele>1094.12</ele>
        <time>2021-10-22T07:21:53Z</time>
      </trkpt>
      <trkpt lat="44.35518" lon="3.74061">
        <ele>1094.12</ele>
        <time>2021-10-22T07:22:10Z</time>
      </trkpt>
      <trkpt lat="44.35515" lon="3.74057">
        <ele>1094.12</ele>
        <time>2021-10-22T07:22:14Z</time>
      </trkpt>
      <trkpt lat="44.3551" lon="3.74055">
        <ele>1094.12</ele>
        <time>2021-10-22T07:22:20Z</time>
      </trkpt>
      <trkpt lat="44.35506" lon="3.74052">
        <ele>1094.6</ele>
        <time>2021-10-22T07:22:24Z</time>
      </trkpt>
      <trkpt lat="44.35502" lon="3.74052">
        <ele>1095.08</ele>
        <time>2021-10-22T07:22:30Z</time>
      </trkpt>
      <trkpt lat="44.35497" lon="3.74048">
        <ele>1095.56</ele>
        <time>2021-10-22T07:22:37Z</time>
      </trkpt>
      <trkpt lat="44.35494" lon="3.74047">
        <ele>1096.04</ele>
        <time>2021-10-22T07:22:40Z</time>
      </trkpt>
      <trkpt lat="44.35489" lon="3.74046">
        <ele>1097</ele>
        <time>2021-10-22T07:22:46Z</time>
      </trkpt>
      <trkpt lat="44.35482" lon="3.74044">
        <ele>1097</ele>
        <time>2021-10-22T07:22:52Z</time>
      </trkpt>
      <trkpt lat="44.35478" lon="3.74043">
        <ele>1096.52</ele>
        <time>2021-10-22T07:23:04Z</time>
      </trkpt>
      <trkpt lat="44.35478" lon="3.74044">
        <ele>1097</ele>
        <time>2021-10-22T07:23:21Z</time>
      </trkpt>
      <trkpt lat="44.35478" lon="3.74044">
        <ele>1097</ele>
        <time>2021-10-22T07:23:41Z</time>
      </trkpt>
      <trkpt lat="44.35478" lon="3.74044">
        <ele>1096.52</ele>
        <time>2021-10-22T07:23:47Z</time>
      </trkpt>
      <trkpt lat="44.35477" lon="3.74043">
        <ele>1097</ele>
        <time>2021-10-22T07:23:49Z</time>
      </trkpt>
      <trkpt lat="44.35476" lon="3.74043">
        <ele>1097</ele>
        <time>2021-10-22T07:23:51Z</time>
      </trkpt>
      <trkpt lat="44.35472" lon="3.74043">
        <ele>1097</ele>
        <time>2021-10-22T07:23:55Z</time>
      </trkpt>
      <trkpt lat="44.35467" lon="3.74044">
        <ele>1097</ele>
        <time>2021-10-22T07:24:00Z</time>
      </trkpt>
      <trkpt lat="44.35463" lon="3.74047">
        <ele>1097.96</ele>
        <time>2021-10-22T07:24:05Z</time>
      </trkpt>
      <trkpt lat="44.35456" lon="3.74045">
        <ele>1097.48</ele>
        <time>2021-10-22T07:24:11Z</time>
      </trkpt>
      <trkpt lat="44.3545" lon="3.74045">
        <ele>1097.96</ele>
        <time>2021-10-22T07:24:15Z</time>
      </trkpt>
      <trkpt lat="44.35447" lon="3.74045">
        <ele>1097.48</ele>
        <time>2021-10-22T07:24:19Z</time>
      </trkpt>
      <trkpt lat="44.35432" lon="3.74043">
        <ele>1097.96</ele>
        <time>2021-10-22T07:24:31Z</time>
      </trkpt>
      <trkpt lat="44.35429" lon="3.74042">
        <ele>1097.96</ele>
        <time>2021-10-22T07:24:34Z</time>
      </trkpt>
      <trkpt lat="44.35415" lon="3.74041">
        <ele>1098.44</ele>
        <time>2021-10-22T07:24:46Z</time>
      </trkpt>
      <trkpt lat="44.35415" lon="3.7404">
        <ele>1097.96</ele>
        <time>2021-10-22T07:24:47Z</time>
      </trkpt>
      <trkpt lat="44.35408" lon="3.74041">
        <ele>1098.44</ele>
        <time>2021-10-22T07:24:54Z</time>
      </trkpt>
      <trkpt lat="44.35401" lon="3.7404">
        <ele>1098.44</ele>
        <time>2021-10-22T07:25:00Z</time>
      </trkpt>
      <trkpt lat="44.35396" lon="3.74038">
        <ele>1098.44</ele>
        <time>2021-10-22T07:25:06Z</time>
      </trkpt>
      <trkpt lat="44.3539" lon="3.74034">
        <ele>1098.44</ele>
        <time>2021-10-22T07:25:12Z</time>
      </trkpt>
      <trkpt lat="44.35387" lon="3.74031">
        <ele>1097.96</ele>
        <time>2021-10-22T07:25:15Z</time>
      </trkpt>
      <trkpt lat="44.35375" lon="3.74021">
        <ele>1097.48</ele>
        <time>2021-10-22T07:25:27Z</time>
      </trkpt>
      <trkpt lat="44.35368" lon="3.74019">
        <ele>1097.48</ele>
        <time>2021-10-22T07:25:31Z</time>
      </trkpt>
      <trkpt lat="44.35362" lon="3.74016">
        <ele>1097.48</ele>
        <time>2021-10-22T07:25:37Z</time>
      </trkpt>
      <trkpt lat="44.35357" lon="3.74015">
        <ele>1097.48</ele>
        <time>2021-10-22T07:25:41Z</time>
      </trkpt>
      <trkpt lat="44.35348" lon="3.7401">
        <ele>1097.48</ele>
        <time>2021-10-22T07:25:49Z</time>
      </trkpt>
      <trkpt lat="44.35344" lon="3.74007">
        <ele>1097.48</ele>
        <time>2021-10-22T07:25:52Z</time>
      </trkpt>
      <trkpt lat="44.35337" lon="3.74001">
        <ele>1097.48</ele>
        <time>2021-10-22T07:26:00Z</time>
      </trkpt>
      <trkpt lat="44.35337" lon="3.73997">
        <ele>1097.96</ele>
        <time>2021-10-22T07:26:03Z</time>
      </trkpt>
      <trkpt lat="44.35338" lon="3.73991">
        <ele>1097.96</ele>
        <time>2021-10-22T07:26:09Z</time>
      </trkpt>
      <trkpt lat="44.35341" lon="3.73985">
        <ele>1097.96</ele>
        <time>2021-10-22T07:26:21Z</time>
      </trkpt>
      <trkpt lat="44.35341" lon="3.73985">
        <ele>1097.96</ele>
        <time>2021-10-22T07:26:42Z</time>
      </trkpt>
      <trkpt lat="44.35339" lon="3.73991">
        <ele>1097.96</ele>
        <time>2021-10-22T07:26:54Z</time>
      </trkpt>
      <trkpt lat="44.35337" lon="3.73997">
        <ele>1097.96</ele>
        <time>2021-10-22T07:27:04Z</time>
      </trkpt>
      <trkpt lat="44.35328" lon="3.73997">
        <ele>1097.96</ele>
        <time>2021-10-22T07:27:17Z</time>
      </trkpt>
      <trkpt lat="44.35321" lon="3.73995">
        <ele>1097.96</ele>
        <time>2021-10-22T07:27:27Z</time>
      </trkpt>
      <trkpt lat="44.3532" lon="3.73995">
        <ele>1097.48</ele>
        <time>2021-10-22T07:27:28Z</time>
      </trkpt>
      <trkpt lat="44.35316" lon="3.73993">
        <ele>1097.48</ele>
        <time>2021-10-22T07:27:31Z</time>
      </trkpt>
      <trkpt lat="44.35306" lon="3.73988">
        <ele>1097.48</ele>
        <time>2021-10-22T07:27:40Z</time>
      </trkpt>
      <trkpt lat="44.35302" lon="3.73986">
        <ele>1097.48</ele>
        <time>2021-10-22T07:27:43Z</time>
      </trkpt>
      <trkpt lat="44.35296" lon="3.73982">
        <ele>1097</ele>
        <time>2021-10-22T07:27:51Z</time>
      </trkpt>
      <trkpt lat="44.35289" lon="3.73972">
        <ele>1096.04</ele>
        <time>2021-10-22T07:28:01Z</time>
      </trkpt>
      <trkpt lat="44.35289" lon="3.73972">
        <ele>1096.04</ele>
        <time>2021-10-22T07:28:03Z</time>
      </trkpt>
      <trkpt lat="44.35296" lon="3.73979">
        <ele>1096.52</ele>
        <time>2021-10-22T07:28:11Z</time>
      </trkpt>
      <trkpt lat="44.35298" lon="3.73973">
        <ele>1096.04</ele>
        <time>2021-10-22T07:28:15Z</time>
      </trkpt>
      <trkpt lat="44.35305" lon="3.73965">
        <ele>1096.04</ele>
        <time>2021-10-22T07:28:23Z</time>
      </trkpt>
      <trkpt lat="44.35311" lon="3.73961">
        <ele>1095.56</ele>
        <time>2021-10-22T07:28:28Z</time>
      </trkpt>
      <trkpt lat="44.35318" lon="3.73958">
        <ele>1094.6</ele>
        <time>2021-10-22T07:28:42Z</time>
      </trkpt>
      <trkpt lat="44.35319" lon="3.73958">
        <ele>1095.08</ele>
        <time>2021-10-22T07:28:45Z</time>
      </trkpt>
      <trkpt lat="44.35321" lon="3.73958">
        <ele>1094.6</ele>
        <time>2021-10-22T07:28:47Z</time>
      </trkpt>
      <trkpt lat="44.35332" lon="3.73958">
        <ele>1094.6</ele>
        <time>2021-10-22T07:29:00Z</time>
      </trkpt>
      <trkpt lat="44.35334" lon="3.73955">
        <ele>1094.12</ele>
        <time>2021-10-22T07:29:15Z</time>
      </trkpt>
      <trkpt lat="44.35325" lon="3.73957">
        <ele>1094.6</ele>
        <time>2021-10-22T07:29:25Z</time>
      </trkpt>
      <trkpt lat="44.35325" lon="3.73957">
        <ele>1094.6</ele>
        <time>2021-10-22T07:29:38Z</time>
      </trkpt>
      <trkpt lat="44.3532" lon="3.73956">
        <ele>1094.12</ele>
        <time>2021-10-22T07:29:50Z</time>
      </trkpt>
      <trkpt lat="44.3532" lon="3.73957">
        <ele>1094.6</ele>
        <time>2021-10-22T07:30:23Z</time>
      </trkpt>
      <trkpt lat="44.35319" lon="3.73958">
        <ele>1094.12</ele>
        <time>2021-10-22T07:30:51Z</time>
      </trkpt>
      <trkpt lat="44.35318" lon="3.73958">
        <ele>1094.12</ele>
        <time>2021-10-22T07:30:52Z</time>
      </trkpt>
      <trkpt lat="44.35314" lon="3.73961">
        <ele>1094.6</ele>
        <time>2021-10-22T07:30:56Z</time>
      </trkpt>
      <trkpt lat="44.35306" lon="3.73964">
        <ele>1095.08</ele>
        <time>2021-10-22T07:31:03Z</time>
      </trkpt>
      <trkpt lat="44.35303" lon="3.73966">
        <ele>1095.56</ele>
        <time>2021-10-22T07:31:15Z</time>
      </trkpt>
      <trkpt lat="44.35303" lon="3.73966">
        <ele>1095.56</ele>
        <time>2021-10-22T07:31:22Z</time>
      </trkpt>
      <trkpt lat="44.353" lon="3.73969">
        <ele>1095.56</ele>
        <time>2021-10-22T07:31:27Z</time>
      </trkpt>
      <trkpt lat="44.35294" lon="3.73977">
        <ele>1097</ele>
        <time>2021-10-22T07:31:36Z</time>
      </trkpt>
      <trkpt lat="44.35286" lon="3.7397">
        <ele>1096.52</ele>
        <time>2021-10-22T07:31:44Z</time>
      </trkpt>
      <trkpt lat="44.3527" lon="3.7396">
        <ele>1096.04</ele>
        <time>2021-10-22T07:31:57Z</time>
      </trkpt>
      <trkpt lat="44.35263" lon="3.73955">
        <ele>1096.04</ele>
        <time>2021-10-22T07:32:05Z</time>
      </trkpt>
      <trkpt lat="44.35256" lon="3.73949">
        <ele>1096.04</ele>
        <time>2021-10-22T07:32:12Z</time>
      </trkpt>
      <trkpt lat="44.35254" lon="3.73947">
        <ele>1096.52</ele>
        <time>2021-10-22T07:32:14Z</time>
      </trkpt>
      <trkpt lat="44.35253" lon="3.73943">
        <ele>1097</ele>
        <time>2021-10-22T07:32:18Z</time>
      </trkpt>
      <trkpt lat="44.35248" lon="3.73938">
        <ele>1097</ele>
        <time>2021-10-22T07:32:23Z</time>
      </trkpt>
      <trkpt lat="44.35243" lon="3.73932">
        <ele>1098.44</ele>
        <time>2021-10-22T07:32:30Z</time>
      </trkpt>
      <trkpt lat="44.35231" lon="3.73932">
        <ele>1098.44</ele>
        <time>2021-10-22T07:32:42Z</time>
      </trkpt>
      <trkpt lat="44.35227" lon="3.7393">
        <ele>1098.92</ele>
        <time>2021-10-22T07:32:46Z</time>
      </trkpt>
      <trkpt lat="44.3522" lon="3.73926">
        <ele>1100.85</ele>
        <time>2021-10-22T07:32:55Z</time>
      </trkpt>
      <trkpt lat="44.35211" lon="3.73923">
        <ele>1101.33</ele>
        <time>2021-10-22T07:33:03Z</time>
      </trkpt>
      <trkpt lat="44.35204" lon="3.73919">
        <ele>1101.81</ele>
        <time>2021-10-22T07:33:09Z</time>
      </trkpt>
      <trkpt lat="44.35201" lon="3.73918">
        <ele>1102.29</ele>
        <time>2021-10-22T07:33:13Z</time>
      </trkpt>
      <trkpt lat="44.35196" lon="3.73913">
        <ele>1103.73</ele>
        <time>2021-10-22T07:33:21Z</time>
      </trkpt>
      <trkpt lat="44.35193" lon="3.73912">
        <ele>1103.73</ele>
        <time>2021-10-22T07:33:25Z</time>
      </trkpt>
      <trkpt lat="44.35189" lon="3.7391">
        <ele>1104.69</ele>
        <time>2021-10-22T07:33:30Z</time>
      </trkpt>
      <trkpt lat="44.35185" lon="3.73905">
        <ele>1105.17</ele>
        <time>2021-10-22T07:33:34Z</time>
      </trkpt>
      <trkpt lat="44.35181" lon="3.73903">
        <ele>1106.13</ele>
        <time>2021-10-22T07:33:46Z</time>
      </trkpt>
      <trkpt lat="44.35179" lon="3.73903">
        <ele>1105.65</ele>
        <time>2021-10-22T07:33:49Z</time>
      </trkpt>
      <trkpt lat="44.35175" lon="3.73903">
        <ele>1106.13</ele>
        <time>2021-10-22T07:33:53Z</time>
      </trkpt>
      <trkpt lat="44.35172" lon="3.73901">
        <ele>1107.1</ele>
        <time>2021-10-22T07:33:56Z</time>
      </trkpt>
      <trkpt lat="44.35169" lon="3.73898">
        <ele>1107.1</ele>
        <time>2021-10-22T07:34:00Z</time>
      </trkpt>
      <trkpt lat="44.35162" lon="3.73885">
        <ele>1106.13</ele>
        <time>2021-10-22T07:34:11Z</time>
      </trkpt>
      <trkpt lat="44.35156" lon="3.73879">
        <ele>1105.65</ele>
        <time>2021-10-22T07:34:19Z</time>
      </trkpt>
      <trkpt lat="44.35152" lon="3.73876">
        <ele>1105.65</ele>
        <time>2021-10-22T07:34:23Z</time>
      </trkpt>
      <trkpt lat="44.35149" lon="3.73876">
        <ele>1105.65</ele>
        <time>2021-10-22T07:34:27Z</time>
      </trkpt>
      <trkpt lat="44.35146" lon="3.73874">
        <ele>1104.69</ele>
        <time>2021-10-22T07:34:30Z</time>
      </trkpt>
      <trkpt lat="44.35141" lon="3.73872">
        <ele>1104.21</ele>
        <time>2021-10-22T07:34:36Z</time>
      </trkpt>
      <trkpt lat="44.35135" lon="3.73866">
        <ele>1104.21</ele>
        <time>2021-10-22T07:34:41Z</time>
      </trkpt>
      <trkpt lat="44.35131" lon="3.73862">
        <ele>1104.21</ele>
        <time>2021-10-22T07:34:46Z</time>
      </trkpt>
      <trkpt lat="44.35124" lon="3.73853">
        <ele>1104.21</ele>
        <time>2021-10-22T07:34:54Z</time>
      </trkpt>
      <trkpt lat="44.35122" lon="3.7385">
        <ele>1104.21</ele>
        <time>2021-10-22T07:34:57Z</time>
      </trkpt>
      <trkpt lat="44.35118" lon="3.73845">
        <ele>1104.21</ele>
        <time>2021-10-22T07:35:02Z</time>
      </trkpt>
      <trkpt lat="44.35108" lon="3.73835">
        <ele>1104.21</ele>
        <time>2021-10-22T07:35:13Z</time>
      </trkpt>
      <trkpt lat="44.35105" lon="3.73831">
        <ele>1104.21</ele>
        <time>2021-10-22T07:35:24Z</time>
      </trkpt>
      <trkpt lat="44.35097" lon="3.73824">
        <ele>1104.21</ele>
        <time>2021-10-22T07:35:34Z</time>
      </trkpt>
      <trkpt lat="44.35096" lon="3.73824">
        <ele>1104.69</ele>
        <time>2021-10-22T07:35:35Z</time>
      </trkpt>
      <trkpt lat="44.3509" lon="3.73817">
        <ele>1104.21</ele>
        <time>2021-10-22T07:35:42Z</time>
      </trkpt>
      <trkpt lat="44.35088" lon="3.73814">
        <ele>1104.21</ele>
        <time>2021-10-22T07:35:45Z</time>
      </trkpt>
      <trkpt lat="44.35082" lon="3.73808">
        <ele>1104.69</ele>
        <time>2021-10-22T07:35:49Z</time>
      </trkpt>
      <trkpt lat="44.35081" lon="3.73807">
        <ele>1103.73</ele>
        <time>2021-10-22T07:35:51Z</time>
      </trkpt>
      <trkpt lat="44.35081" lon="3.73805">
        <ele>1104.69</ele>
        <time>2021-10-22T07:35:55Z</time>
      </trkpt>
      <trkpt lat="44.35079" lon="3.73796">
        <ele>1103.73</ele>
        <time>2021-10-22T07:36:03Z</time>
      </trkpt>
      <trkpt lat="44.35078" lon="3.73794">
        <ele>1103.25</ele>
        <time>2021-10-22T07:36:16Z</time>
      </trkpt>
      <trkpt lat="44.35078" lon="3.73797">
        <ele>1103.73</ele>
        <time>2021-10-22T07:36:20Z</time>
      </trkpt>
      <trkpt lat="44.35075" lon="3.73803">
        <ele>1103.73</ele>
        <time>2021-10-22T07:36:31Z</time>
      </trkpt>
      <trkpt lat="44.35075" lon="3.73803">
        <ele>1103.73</ele>
        <time>2021-10-22T07:36:34Z</time>
      </trkpt>
      <trkpt lat="44.35069" lon="3.73798">
        <ele>1103.73</ele>
        <time>2021-10-22T07:36:40Z</time>
      </trkpt>
      <trkpt lat="44.35065" lon="3.73795">
        <ele>1103.73</ele>
        <time>2021-10-22T07:36:45Z</time>
      </trkpt>
      <trkpt lat="44.3506" lon="3.73791">
        <ele>1103.25</ele>
        <time>2021-10-22T07:36:51Z</time>
      </trkpt>
      <trkpt lat="44.35057" lon="3.73789">
        <ele>1102.77</ele>
        <time>2021-10-22T07:36:54Z</time>
      </trkpt>
      <trkpt lat="44.35045" lon="3.7378">
        <ele>1101.81</ele>
        <time>2021-10-22T07:37:06Z</time>
      </trkpt>
      <trkpt lat="44.35043" lon="3.73779">
        <ele>1101.33</ele>
        <time>2021-10-22T07:37:08Z</time>
      </trkpt>
      <trkpt lat="44.35041" lon="3.73778">
        <ele>1101.33</ele>
        <time>2021-10-22T07:37:10Z</time>
      </trkpt>
      <trkpt lat="44.35037" lon="3.73776">
        <ele>1101.33</ele>
        <time>2021-10-22T07:37:15Z</time>
      </trkpt>
      <trkpt lat="44.3503" lon="3.73772">
        <ele>1100.85</ele>
        <time>2021-10-22T07:37:22Z</time>
      </trkpt>
      <trkpt lat="44.35018" lon="3.73761">
        <ele>1100.37</ele>
        <time>2021-10-22T07:37:36Z</time>
      </trkpt>
      <trkpt lat="44.35017" lon="3.7376">
        <ele>1100.37</ele>
        <time>2021-10-22T07:37:38Z</time>
      </trkpt>
      <trkpt lat="44.35007" lon="3.73758">
        <ele>1099.4</ele>
        <time>2021-10-22T07:37:46Z</time>
      </trkpt>
      <trkpt lat="44.34997" lon="3.73754">
        <ele>1098.92</ele>
        <time>2021-10-22T07:37:57Z</time>
      </trkpt>
      <trkpt lat="44.34993" lon="3.73751">
        <ele>1098.92</ele>
        <time>2021-10-22T07:38:06Z</time>
      </trkpt>
      <trkpt lat="44.34991" lon="3.7375">
        <ele>1098.92</ele>
        <time>2021-10-22T07:38:08Z</time>
      </trkpt>
      <trkpt lat="44.34988" lon="3.73748">
        <ele>1098.44</ele>
        <time>2021-10-22T07:38:11Z</time>
      </trkpt>
      <trkpt lat="44.34984" lon="3.73744">
        <ele>1098.44</ele>
        <time>2021-10-22T07:38:26Z</time>
      </trkpt>
      <trkpt lat="44.34984" lon="3.73743">
        <ele>1098.44</ele>
        <time>2021-10-22T07:38:29Z</time>
      </trkpt>
      <trkpt lat="44.34978" lon="3.73739">
        <ele>1098.44</ele>
        <time>2021-10-22T07:38:35Z</time>
      </trkpt>
      <trkpt lat="44.3497" lon="3.73734">
        <ele>1098.44</ele>
        <time>2021-10-22T07:38:43Z</time>
      </trkpt>
      <trkpt lat="44.34955" lon="3.73727">
        <ele>1098.44</ele>
        <time>2021-10-22T07:38:57Z</time>
      </trkpt>
      <trkpt lat="44.34943" lon="3.73724">
        <ele>1097.48</ele>
        <time>2021-10-22T07:39:08Z</time>
      </trkpt>
      <trkpt lat="44.3494" lon="3.73725">
        <ele>1097.96</ele>
        <time>2021-10-22T07:39:11Z</time>
      </trkpt>
      <trkpt lat="44.34933" lon="3.73724">
        <ele>1097.96</ele>
        <time>2021-10-22T07:39:17Z</time>
      </trkpt>
      <trkpt lat="44.3493" lon="3.73723">
        <ele>1097.96</ele>
        <time>2021-10-22T07:39:19Z</time>
      </trkpt>
      <trkpt lat="44.34924" lon="3.73718">
        <ele>1097.48</ele>
        <time>2021-10-22T07:39:26Z</time>
      </trkpt>
      <trkpt lat="44.34927" lon="3.73715">
        <ele>1097.96</ele>
        <time>2021-10-22T07:39:30Z</time>
      </trkpt>
      <trkpt lat="44.34925" lon="3.73694">
        <ele>1098.44</ele>
        <time>2021-10-22T07:39:41Z</time>
      </trkpt>
      <trkpt lat="44.34924" lon="3.73677">
        <ele>1099.4</ele>
        <time>2021-10-22T07:39:52Z</time>
      </trkpt>
      <trkpt lat="44.34921" lon="3.73666">
        <ele>1099.4</ele>
        <time>2021-10-22T07:39:58Z</time>
      </trkpt>
      <trkpt lat="44.34918" lon="3.73656">
        <ele>1099.89</ele>
        <time>2021-10-22T07:40:04Z</time>
      </trkpt>
      <trkpt lat="44.34916" lon="3.73644">
        <ele>1100.85</ele>
        <time>2021-10-22T07:40:11Z</time>
      </trkpt>
      <trkpt lat="44.34914" lon="3.73632">
        <ele>1101.33</ele>
        <time>2021-10-22T07:40:18Z</time>
      </trkpt>
      <trkpt lat="44.34909" lon="3.73612">
        <ele>1101.81</ele>
        <time>2021-10-22T07:40:30Z</time>
      </trkpt>
      <trkpt lat="44.34908" lon="3.73609">
        <ele>1102.29</ele>
        <time>2021-10-22T07:40:33Z</time>
      </trkpt>
      <trkpt lat="44.34907" lon="3.73605">
        <ele>1102.29</ele>
        <time>2021-10-22T07:40:36Z</time>
      </trkpt>
      <trkpt lat="44.34906" lon="3.73602">
        <ele>1102.29</ele>
        <time>2021-10-22T07:40:39Z</time>
      </trkpt>
      <trkpt lat="44.34905" lon="3.73597">
        <ele>1102.29</ele>
        <time>2021-10-22T07:40:52Z</time>
      </trkpt>
      <trkpt lat="44.34905" lon="3.73599">
        <ele>1102.29</ele>
        <time>2021-10-22T07:41:15Z</time>
      </trkpt>
      <trkpt lat="44.34904" lon="3.73604">
        <ele>1102.29</ele>
        <time>2021-10-22T07:41:19Z</time>
      </trkpt>
      <trkpt lat="44.34905" lon="3.73608">
        <ele>1102.29</ele>
        <time>2021-10-22T07:41:21Z</time>
      </trkpt>
      <trkpt lat="44.34906" lon="3.73614">
        <ele>1102.29</ele>
        <time>2021-10-22T07:41:25Z</time>
      </trkpt>
      <trkpt lat="44.34909" lon="3.73636">
        <ele>1101.81</ele>
        <time>2021-10-22T07:41:37Z</time>
      </trkpt>
      <trkpt lat="44.34911" lon="3.73656">
        <ele>1100.37</ele>
        <time>2021-10-22T07:41:48Z</time>
      </trkpt>
      <trkpt lat="44.34916" lon="3.73677">
        <ele>1099.4</ele>
        <time>2021-10-22T07:42:00Z</time>
      </trkpt>
      <trkpt lat="44.34917" lon="3.73678">
        <ele>1099.4</ele>
        <time>2021-10-22T07:42:01Z</time>
      </trkpt>
      <trkpt lat="44.34922" lon="3.73704">
        <ele>1098.44</ele>
        <time>2021-10-22T07:42:13Z</time>
      </trkpt>
      <trkpt lat="44.34924" lon="3.73714">
        <ele>1098.44</ele>
        <time>2021-10-22T07:42:21Z</time>
      </trkpt>
      <trkpt lat="44.34919" lon="3.73715">
        <ele>1097.96</ele>
        <time>2021-10-22T07:42:28Z</time>
      </trkpt>
      <trkpt lat="44.34902" lon="3.73708">
        <ele>1098.44</ele>
        <time>2021-10-22T07:42:41Z</time>
      </trkpt>
      <trkpt lat="44.34902" lon="3.73707">
        <ele>1098.44</ele>
        <time>2021-10-22T07:43:08Z</time>
      </trkpt>
      <trkpt lat="44.34901" lon="3.73707">
        <ele>1097.96</ele>
        <time>2021-10-22T07:43:12Z</time>
      </trkpt>
      <trkpt lat="44.34899" lon="3.73704">
        <ele>1098.44</ele>
        <time>2021-10-22T07:43:14Z</time>
      </trkpt>
      <trkpt lat="44.34881" lon="3.73696">
        <ele>1098.44</ele>
        <time>2021-10-22T07:43:29Z</time>
      </trkpt>
      <trkpt lat="44.34868" lon="3.73687">
        <ele>1098.92</ele>
        <time>2021-10-22T07:43:41Z</time>
      </trkpt>
      <trkpt lat="44.34859" lon="3.73682">
        <ele>1098.92</ele>
        <time>2021-10-22T07:43:46Z</time>
      </trkpt>
      <trkpt lat="44.34852" lon="3.73681">
        <ele>1099.4</ele>
        <time>2021-10-22T07:43:51Z</time>
      </trkpt>
      <trkpt lat="44.34845" lon="3.73681">
        <ele>1099.4</ele>
        <time>2021-10-22T07:44:04Z</time>
      </trkpt>
      <trkpt lat="44.34844" lon="3.7368">
        <ele>1100.37</ele>
        <time>2021-10-22T07:44:11Z</time>
      </trkpt>
      <trkpt lat="44.34843" lon="3.7368">
        <ele>1100.37</ele>
        <time>2021-10-22T07:44:22Z</time>
      </trkpt>
      <trkpt lat="44.34846" lon="3.73682">
        <ele>1099.89</ele>
        <time>2021-10-22T07:44:35Z</time>
      </trkpt>
      <trkpt lat="44.34844" lon="3.73681">
        <ele>1099.89</ele>
        <time>2021-10-22T07:44:38Z</time>
      </trkpt>
      <trkpt lat="44.34844" lon="3.73675">
        <ele>1100.85</ele>
        <time>2021-10-22T07:44:43Z</time>
      </trkpt>
      <trkpt lat="44.34847" lon="3.7366">
        <ele>1100.85</ele>
        <time>2021-10-22T07:44:52Z</time>
      </trkpt>
      <trkpt lat="44.34846" lon="3.73648">
        <ele>1100.85</ele>
        <time>2021-10-22T07:44:58Z</time>
      </trkpt>
      <trkpt lat="44.34845" lon="3.73638">
        <ele>1101.33</ele>
        <time>2021-10-22T07:45:04Z</time>
      </trkpt>
      <trkpt lat="44.34849" lon="3.7363">
        <ele>1101.81</ele>
        <time>2021-10-22T07:45:11Z</time>
      </trkpt>
      <trkpt lat="44.34854" lon="3.73619">
        <ele>1102.77</ele>
        <time>2021-10-22T07:45:21Z</time>
      </trkpt>
      <trkpt lat="44.3486" lon="3.73607">
        <ele>1103.25</ele>
        <time>2021-10-22T07:45:30Z</time>
      </trkpt>
      <trkpt lat="44.34865" lon="3.73586">
        <ele>1103.73</ele>
        <time>2021-10-22T07:45:41Z</time>
      </trkpt>
      <trkpt lat="44.34865" lon="3.73582">
        <ele>1103.73</ele>
        <time>2021-10-22T07:45:45Z</time>
      </trkpt>
      <trkpt lat="44.34864" lon="3.73578">
        <ele>1103.25</ele>
        <time>2021-10-22T07:46:02Z</time>
      </trkpt>
      <trkpt lat="44.34865" lon="3.73568">
        <ele>1103.25</ele>
        <time>2021-10-22T07:46:14Z</time>
      </trkpt>
      <trkpt lat="44.34865" lon="3.73563">
        <ele>1103.25</ele>
        <time>2021-10-22T07:46:18Z</time>
      </trkpt>
      <trkpt lat="44.34864" lon="3.73557">
        <ele>1103.25</ele>
        <time>2021-10-22T07:46:21Z</time>
      </trkpt>
      <trkpt lat="44.34861" lon="3.7354">
        <ele>1102.29</ele>
        <time>2021-10-22T07:46:32Z</time>
      </trkpt>
      <trkpt lat="44.34857" lon="3.73531">
        <ele>1101.81</ele>
        <time>2021-10-22T07:46:38Z</time>
      </trkpt>
      <trkpt lat="44.34856" lon="3.73527">
        <ele>1101.81</ele>
        <time>2021-10-22T07:46:41Z</time>
      </trkpt>
      <trkpt lat="44.3485" lon="3.73519">
        <ele>1102.77</ele>
        <time>2021-10-22T07:46:47Z</time>
      </trkpt>
      <trkpt lat="44.34848" lon="3.73514">
        <ele>1102.77</ele>
        <time>2021-10-22T07:46:50Z</time>
      </trkpt>
      <trkpt lat="44.34846" lon="3.7351">
        <ele>1103.25</ele>
        <time>2021-10-22T07:46:54Z</time>
      </trkpt>
      <trkpt lat="44.34841" lon="3.73499">
        <ele>1103.73</ele>
        <time>2021-10-22T07:47:06Z</time>
      </trkpt>
      <trkpt lat="44.34841" lon="3.73499">
        <ele>1103.73</ele>
        <time>2021-10-22T07:47:28Z</time>
      </trkpt>
      <trkpt lat="44.34841" lon="3.73499">
        <ele>1103.73</ele>
        <time>2021-10-22T07:47:52Z</time>
      </trkpt>
      <trkpt lat="44.3484" lon="3.73495">
        <ele>1103.73</ele>
        <time>2021-10-22T07:48:03Z</time>
      </trkpt>
      <trkpt lat="44.3484" lon="3.73491">
        <ele>1103.73</ele>
        <time>2021-10-22T07:48:06Z</time>
      </trkpt>
      <trkpt lat="44.34838" lon="3.73484">
        <ele>1103.25</ele>
        <time>2021-10-22T07:48:11Z</time>
      </trkpt>
      <trkpt lat="44.34838" lon="3.73479">
        <ele>1102.77</ele>
        <time>2021-10-22T07:48:14Z</time>
      </trkpt>
      <trkpt lat="44.34833" lon="3.73459">
        <ele>1101.33</ele>
        <time>2021-10-22T07:48:27Z</time>
      </trkpt>
      <trkpt lat="44.3483" lon="3.73444">
        <ele>1100.37</ele>
        <time>2021-10-22T07:48:37Z</time>
      </trkpt>
      <trkpt lat="44.34828" lon="3.73431">
        <ele>1099.89</ele>
        <time>2021-10-22T07:48:43Z</time>
      </trkpt>
      <trkpt lat="44.34827" lon="3.73418">
        <ele>1099.4</ele>
        <time>2021-10-22T07:48:51Z</time>
      </trkpt>
      <trkpt lat="44.34824" lon="3.73407">
        <ele>1099.4</ele>
        <time>2021-10-22T07:48:59Z</time>
      </trkpt>
      <trkpt lat="44.34822" lon="3.73395">
        <ele>1099.4</ele>
        <time>2021-10-22T07:49:11Z</time>
      </trkpt>
      <trkpt lat="44.34822" lon="3.73395">
        <ele>1099.4</ele>
        <time>2021-10-22T07:49:28Z</time>
      </trkpt>
      <trkpt lat="44.34822" lon="3.7339">
        <ele>1099.89</ele>
        <time>2021-10-22T07:49:46Z</time>
      </trkpt>
      <trkpt lat="44.34821" lon="3.73384">
        <ele>1099.89</ele>
        <time>2021-10-22T07:49:50Z</time>
      </trkpt>
      <trkpt lat="44.34823" lon="3.73375">
        <ele>1099.4</ele>
        <time>2021-10-22T07:50:02Z</time>
      </trkpt>
      <trkpt lat="44.34823" lon="3.73375">
        <ele>1099.4</ele>
        <time>2021-10-22T07:50:11Z</time>
      </trkpt>
      <trkpt lat="44.34824" lon="3.7337">
        <ele>1099.89</ele>
        <time>2021-10-22T07:50:26Z</time>
      </trkpt>
      <trkpt lat="44.34824" lon="3.73368">
        <ele>1099.4</ele>
        <time>2021-10-22T07:50:41Z</time>
      </trkpt>
      <trkpt lat="44.34825" lon="3.73363">
        <ele>1100.37</ele>
        <time>2021-10-22T07:50:56Z</time>
      </trkpt>
      <trkpt lat="44.34827" lon="3.73361">
        <ele>1100.85</ele>
        <time>2021-10-22T07:51:14Z</time>
      </trkpt>
      <trkpt lat="44.34828" lon="3.73351">
        <ele>1100.37</ele>
        <time>2021-10-22T07:51:28Z</time>
      </trkpt>
      <trkpt lat="44.34832" lon="3.73338">
        <ele>1100.85</ele>
        <time>2021-10-22T07:51:38Z</time>
      </trkpt>
      <trkpt lat="44.34833" lon="3.73331">
        <ele>1101.33</ele>
        <time>2021-10-22T07:51:43Z</time>
      </trkpt>
      <trkpt lat="44.34834" lon="3.73327">
        <ele>1101.81</ele>
        <time>2021-10-22T07:51:46Z</time>
      </trkpt>
      <trkpt lat="44.34839" lon="3.73317">
        <ele>1101.33</ele>
        <time>2021-10-22T07:51:58Z</time>
      </trkpt>
      <trkpt lat="44.34839" lon="3.73317">
        <ele>1101.33</ele>
        <time>2021-10-22T07:52:08Z</time>
      </trkpt>
      <trkpt lat="44.34841" lon="3.73313">
        <ele>1102.29</ele>
        <time>2021-10-22T07:52:23Z</time>
      </trkpt>
      <trkpt lat="44.34841" lon="3.73312">
        <ele>1102.29</ele>
        <time>2021-10-22T07:52:24Z</time>
      </trkpt>
      <trkpt lat="44.34846" lon="3.73303">
        <ele>1102.29</ele>
        <time>2021-10-22T07:52:35Z</time>
      </trkpt>
      <trkpt lat="44.34847" lon="3.73301">
        <ele>1102.29</ele>
        <time>2021-10-22T07:52:47Z</time>
      </trkpt>
      <trkpt lat="44.3485" lon="3.73296">
        <ele>1102.29</ele>
        <time>2021-10-22T07:52:56Z</time>
      </trkpt>
      <trkpt lat="44.34856" lon="3.73288">
        <ele>1102.77</ele>
        <time>2021-10-22T07:53:06Z</time>
      </trkpt>
      <trkpt lat="44.34859" lon="3.73282">
        <ele>1102.77</ele>
        <time>2021-10-22T07:53:13Z</time>
      </trkpt>
      <trkpt lat="44.34863" lon="3.73276">
        <ele>1103.25</ele>
        <time>2021-10-22T07:53:18Z</time>
      </trkpt>
      <trkpt lat="44.3487" lon="3.73268">
        <ele>1102.77</ele>
        <time>2021-10-22T07:53:27Z</time>
      </trkpt>
      <trkpt lat="44.34871" lon="3.73266">
        <ele>1102.77</ele>
        <time>2021-10-22T07:53:29Z</time>
      </trkpt>
      <trkpt lat="44.34874" lon="3.73261">
        <ele>1102.77</ele>
        <time>2021-10-22T07:53:33Z</time>
      </trkpt>
      <trkpt lat="44.34878" lon="3.73255">
        <ele>1102.77</ele>
        <time>2021-10-22T07:53:46Z</time>
      </trkpt>
      <trkpt lat="44.34881" lon="3.73251">
        <ele>1103.73</ele>
        <time>2021-10-22T07:54:04Z</time>
      </trkpt>
      <trkpt lat="44.34882" lon="3.73249">
        <ele>1103.25</ele>
        <time>2021-10-22T07:54:05Z</time>
      </trkpt>
      <trkpt lat="44.34885" lon="3.73245">
        <ele>1103.25</ele>
        <time>2021-10-22T07:54:09Z</time>
      </trkpt>
      <trkpt lat="44.34891" lon="3.73241">
        <ele>1103.25</ele>
        <time>2021-10-22T07:54:21Z</time>
      </trkpt>
      <trkpt lat="44.34892" lon="3.73239">
        <ele>1103.73</ele>
        <time>2021-10-22T07:54:32Z</time>
      </trkpt>
      <trkpt lat="44.34897" lon="3.73232">
        <ele>1103.25</ele>
        <time>2021-10-22T07:54:39Z</time>
      </trkpt>
      <trkpt lat="44.34904" lon="3.73219">
        <ele>1102.77</ele>
        <time>2021-10-22T07:54:51Z</time>
      </trkpt>
      <trkpt lat="44.34904" lon="3.73218">
        <ele>1102.77</ele>
        <time>2021-10-22T07:55:02Z</time>
      </trkpt>
      <trkpt lat="44.3491" lon="3.73212">
        <ele>1103.25</ele>
        <time>2021-10-22T07:55:08Z</time>
      </trkpt>
      <trkpt lat="44.34915" lon="3.73205">
        <ele>1103.25</ele>
        <time>2021-10-22T07:55:14Z</time>
      </trkpt>
      <trkpt lat="44.34917" lon="3.732">
        <ele>1103.25</ele>
        <time>2021-10-22T07:55:17Z</time>
      </trkpt>
      <trkpt lat="44.34918" lon="3.73197">
        <ele>1103.25</ele>
        <time>2021-10-22T07:55:19Z</time>
      </trkpt>
      <trkpt lat="44.34919" lon="3.73189">
        <ele>1103.73</ele>
        <time>2021-10-22T07:55:25Z</time>
      </trkpt>
      <trkpt lat="44.3492" lon="3.73175">
        <ele>1103.25</ele>
        <time>2021-10-22T07:55:37Z</time>
      </trkpt>
      <trkpt lat="44.3492" lon="3.7317">
        <ele>1102.77</ele>
        <time>2021-10-22T07:55:41Z</time>
      </trkpt>
      <trkpt lat="44.34922" lon="3.73168">
        <ele>1103.73</ele>
        <time>2021-10-22T07:55:56Z</time>
      </trkpt>
      <trkpt lat="44.34922" lon="3.73168">
        <ele>1103.73</ele>
        <time>2021-10-22T07:56:32Z</time>
      </trkpt>
      <trkpt lat="44.34922" lon="3.73168">
        <ele>1103.73</ele>
        <time>2021-10-22T07:57:07Z</time>
      </trkpt>
      <trkpt lat="44.34922" lon="3.73168">
        <ele>1102.77</ele>
        <time>2021-10-22T07:57:29Z</time>
      </trkpt>
      <trkpt lat="44.34921" lon="3.73161">
        <ele>1102.77</ele>
        <time>2021-10-22T07:57:41Z</time>
      </trkpt>
      <trkpt lat="44.34923" lon="3.73147">
        <ele>1102.77</ele>
        <time>2021-10-22T07:57:52Z</time>
      </trkpt>
      <trkpt lat="44.34926" lon="3.73134">
        <ele>1102.29</ele>
        <time>2021-10-22T07:58:02Z</time>
      </trkpt>
      <trkpt lat="44.34927" lon="3.73132">
        <ele>1102.29</ele>
        <time>2021-10-22T07:58:04Z</time>
      </trkpt>
      <trkpt lat="44.34931" lon="3.73123">
        <ele>1102.29</ele>
        <time>2021-10-22T07:58:11Z</time>
      </trkpt>
      <trkpt lat="44.34932" lon="3.73112">
        <ele>1101.81</ele>
        <time>2021-10-22T07:58:18Z</time>
      </trkpt>
      <trkpt lat="44.34933" lon="3.73102">
        <ele>1100.85</ele>
        <time>2021-10-22T07:58:25Z</time>
      </trkpt>
      <trkpt lat="44.34933" lon="3.73099">
        <ele>1100.37</ele>
        <time>2021-10-22T07:58:27Z</time>
      </trkpt>
      <trkpt lat="44.34937" lon="3.73092">
        <ele>1099.4</ele>
        <time>2021-10-22T07:58:33Z</time>
      </trkpt>
      <trkpt lat="44.34938" lon="3.73084">
        <ele>1099.4</ele>
        <time>2021-10-22T07:58:38Z</time>
      </trkpt>
      <trkpt lat="44.34937" lon="3.73069">
        <ele>1097.96</ele>
        <time>2021-10-22T07:58:49Z</time>
      </trkpt>
      <trkpt lat="44.34937" lon="3.73067">
        <ele>1097.96</ele>
        <time>2021-10-22T07:58:50Z</time>
      </trkpt>
      <trkpt lat="44.34939" lon="3.73054">
        <ele>1097</ele>
        <time>2021-10-22T07:59:01Z</time>
      </trkpt>
      <trkpt lat="44.34939" lon="3.73054">
        <ele>1096.52</ele>
        <time>2021-10-22T07:59:05Z</time>
      </trkpt>
      <trkpt lat="44.34939" lon="3.73049">
        <ele>1097</ele>
        <time>2021-10-22T07:59:08Z</time>
      </trkpt>
      <trkpt lat="44.3494" lon="3.73042">
        <ele>1096.04</ele>
        <time>2021-10-22T07:59:13Z</time>
      </trkpt>
      <trkpt lat="44.34941" lon="3.73038">
        <ele>1096.04</ele>
        <time>2021-10-22T07:59:16Z</time>
      </trkpt>
      <trkpt lat="44.34939" lon="3.73027">
        <ele>1095.56</ele>
        <time>2021-10-22T07:59:23Z</time>
      </trkpt>
      <trkpt lat="44.3494" lon="3.73021">
        <ele>1095.56</ele>
        <time>2021-10-22T07:59:27Z</time>
      </trkpt>
      <trkpt lat="44.3494" lon="3.73016">
        <ele>1095.08</ele>
        <time>2021-10-22T07:59:31Z</time>
      </trkpt>
      <trkpt lat="44.3494" lon="3.73013">
        <ele>1095.56</ele>
        <time>2021-10-22T07:59:33Z</time>
      </trkpt>
      <trkpt lat="44.34944" lon="3.73007">
        <ele>1094.6</ele>
        <time>2021-10-22T07:59:39Z</time>
      </trkpt>
      <trkpt lat="44.34947" lon="3.73001">
        <ele>1094.12</ele>
        <time>2021-10-22T07:59:44Z</time>
      </trkpt>
      <trkpt lat="44.34951" lon="3.72992">
        <ele>1093.64</ele>
        <time>2021-10-22T07:59:52Z</time>
      </trkpt>
      <trkpt lat="44.34957" lon="3.72987">
        <ele>1092.68</ele>
        <time>2021-10-22T08:00:04Z</time>
      </trkpt>
      <trkpt lat="44.34963" lon="3.72973">
        <ele>1092.2</ele>
        <time>2021-10-22T08:00:16Z</time>
      </trkpt>
      <trkpt lat="44.34965" lon="3.72968">
        <ele>1091.71</ele>
        <time>2021-10-22T08:00:21Z</time>
      </trkpt>
      <trkpt lat="44.34969" lon="3.72961">
        <ele>1090.75</ele>
        <time>2021-10-22T08:00:27Z</time>
      </trkpt>
      <trkpt lat="44.34975" lon="3.72958">
        <ele>1089.79</ele>
        <time>2021-10-22T08:00:33Z</time>
      </trkpt>
      <trkpt lat="44.34979" lon="3.72954">
        <ele>1088.83</ele>
        <time>2021-10-22T08:00:39Z</time>
      </trkpt>
      <trkpt lat="44.34982" lon="3.72951">
        <ele>1088.35</ele>
        <time>2021-10-22T08:00:43Z</time>
      </trkpt>
      <trkpt lat="44.34985" lon="3.72949">
        <ele>1087.87</ele>
        <time>2021-10-22T08:00:46Z</time>
      </trkpt>
      <trkpt lat="44.34993" lon="3.72941">
        <ele>1086.43</ele>
        <time>2021-10-22T08:00:56Z</time>
      </trkpt>
      <trkpt lat="44.34995" lon="3.7294">
        <ele>1085.95</ele>
        <time>2021-10-22T08:00:58Z</time>
      </trkpt>
      <trkpt lat="44.35001" lon="3.72937">
        <ele>1084.5</ele>
        <time>2021-10-22T08:01:04Z</time>
      </trkpt>
      <trkpt lat="44.35007" lon="3.72934">
        <ele>1083.54</ele>
        <time>2021-10-22T08:01:11Z</time>
      </trkpt>
      <trkpt lat="44.35022" lon="3.72926">
        <ele>1081.14</ele>
        <time>2021-10-22T08:01:24Z</time>
      </trkpt>
      <trkpt lat="44.35027" lon="3.72921">
        <ele>1079.7</ele>
        <time>2021-10-22T08:01:29Z</time>
      </trkpt>
      <trkpt lat="44.35034" lon="3.72916">
        <ele>1078.74</ele>
        <time>2021-10-22T08:01:37Z</time>
      </trkpt>
      <trkpt lat="44.35036" lon="3.72914">
        <ele>1079.22</ele>
        <time>2021-10-22T08:01:39Z</time>
      </trkpt>
      <trkpt lat="44.35039" lon="3.72906">
        <ele>1078.26</ele>
        <time>2021-10-22T08:01:48Z</time>
      </trkpt>
      <trkpt lat="44.35044" lon="3.72902">
        <ele>1076.81</ele>
        <time>2021-10-22T08:01:54Z</time>
      </trkpt>
      <trkpt lat="44.35047" lon="3.72899">
        <ele>1076.81</ele>
        <time>2021-10-22T08:01:57Z</time>
      </trkpt>
      <trkpt lat="44.3505" lon="3.72896">
        <ele>1075.85</ele>
        <time>2021-10-22T08:02:01Z</time>
      </trkpt>
      <trkpt lat="44.35053" lon="3.72891">
        <ele>1075.37</ele>
        <time>2021-10-22T08:02:05Z</time>
      </trkpt>
      <trkpt lat="44.35056" lon="3.72888">
        <ele>1074.41</ele>
        <time>2021-10-22T08:02:09Z</time>
      </trkpt>
      <trkpt lat="44.35058" lon="3.72884">
        <ele>1073.93</ele>
        <time>2021-10-22T08:02:12Z</time>
      </trkpt>
      <trkpt lat="44.35061" lon="3.72876">
        <ele>1072.97</ele>
        <time>2021-10-22T08:02:18Z</time>
      </trkpt>
      <trkpt lat="44.35063" lon="3.72874">
        <ele>1072.97</ele>
        <time>2021-10-22T08:02:20Z</time>
      </trkpt>
      <trkpt lat="44.35066" lon="3.72868">
        <ele>1072.49</ele>
        <time>2021-10-22T08:02:26Z</time>
      </trkpt>
      <trkpt lat="44.35075" lon="3.72859">
        <ele>1071.05</ele>
        <time>2021-10-22T08:02:35Z</time>
      </trkpt>
      <trkpt lat="44.35079" lon="3.72855">
        <ele>1070.08</ele>
        <time>2021-10-22T08:02:40Z</time>
      </trkpt>
      <trkpt lat="44.35082" lon="3.72855">
        <ele>1069.6</ele>
        <time>2021-10-22T08:02:42Z</time>
      </trkpt>
      <trkpt lat="44.35088" lon="3.72847">
        <ele>1069.12</ele>
        <time>2021-10-22T08:02:50Z</time>
      </trkpt>
      <trkpt lat="44.35091" lon="3.72838">
        <ele>1068.16</ele>
        <time>2021-10-22T08:02:54Z</time>
      </trkpt>
      <trkpt lat="44.35098" lon="3.72821">
        <ele>1066.72</ele>
        <time>2021-10-22T08:03:06Z</time>
      </trkpt>
      <trkpt lat="44.351" lon="3.72817">
        <ele>1065.76</ele>
        <time>2021-10-22T08:03:10Z</time>
      </trkpt>
      <trkpt lat="44.35102" lon="3.7281">
        <ele>1065.28</ele>
        <time>2021-10-22T08:03:20Z</time>
      </trkpt>
      <trkpt lat="44.35105" lon="3.72805">
        <ele>1064.8</ele>
        <time>2021-10-22T08:03:27Z</time>
      </trkpt>
      <trkpt lat="44.35107" lon="3.72795">
        <ele>1064.32</ele>
        <time>2021-10-22T08:03:38Z</time>
      </trkpt>
      <trkpt lat="44.35113" lon="3.72785">
        <ele>1063.84</ele>
        <time>2021-10-22T08:03:50Z</time>
      </trkpt>
      <trkpt lat="44.35122" lon="3.72775">
        <ele>1062.39</ele>
        <time>2021-10-22T08:04:00Z</time>
      </trkpt>
      <trkpt lat="44.35124" lon="3.72768">
        <ele>1061.91</ele>
        <time>2021-10-22T08:04:05Z</time>
      </trkpt>
      <trkpt lat="44.35122" lon="3.72765">
        <ele>1060.95</ele>
        <time>2021-10-22T08:04:08Z</time>
      </trkpt>
      <trkpt lat="44.35114" lon="3.72762">
        <ele>1059.51</ele>
        <time>2021-10-22T08:04:19Z</time>
      </trkpt>
      <trkpt lat="44.35102" lon="3.72759">
        <ele>1058.07</ele>
        <time>2021-10-22T08:04:30Z</time>
      </trkpt>
      <trkpt lat="44.35098" lon="3.72758">
        <ele>1057.59</ele>
        <time>2021-10-22T08:04:33Z</time>
      </trkpt>
      <trkpt lat="44.35099" lon="3.72761">
        <ele>1058.07</ele>
        <time>2021-10-22T08:04:46Z</time>
      </trkpt>
      <trkpt lat="44.35099" lon="3.72761">
        <ele>1058.07</ele>
        <time>2021-10-22T08:05:08Z</time>
      </trkpt>
      <trkpt lat="44.35098" lon="3.7276">
        <ele>1058.07</ele>
        <time>2021-10-22T08:05:40Z</time>
      </trkpt>
      <trkpt lat="44.35098" lon="3.7276">
        <ele>1058.55</ele>
        <time>2021-10-22T08:05:54Z</time>
      </trkpt>
      <trkpt lat="44.35096" lon="3.72761">
        <ele>1057.59</ele>
        <time>2021-10-22T08:05:58Z</time>
      </trkpt>
      <trkpt lat="44.35091" lon="3.72763">
        <ele>1057.11</ele>
        <time>2021-10-22T08:06:03Z</time>
      </trkpt>
      <trkpt lat="44.35086" lon="3.72766">
        <ele>1056.63</ele>
        <time>2021-10-22T08:06:08Z</time>
      </trkpt>
      <trkpt lat="44.35084" lon="3.72768">
        <ele>1056.63</ele>
        <time>2021-10-22T08:06:11Z</time>
      </trkpt>
      <trkpt lat="44.35078" lon="3.72771">
        <ele>1055.67</ele>
        <time>2021-10-22T08:06:17Z</time>
      </trkpt>
      <trkpt lat="44.35075" lon="3.72772">
        <ele>1054.7</ele>
        <time>2021-10-22T08:06:20Z</time>
      </trkpt>
      <trkpt lat="44.35064" lon="3.72774">
        <ele>1053.26</ele>
        <time>2021-10-22T08:06:33Z</time>
      </trkpt>
      <trkpt lat="44.35053" lon="3.72775">
        <ele>1050.86</ele>
        <time>2021-10-22T08:06:43Z</time>
      </trkpt>
      <trkpt lat="44.35049" lon="3.72774">
        <ele>1049.9</ele>
        <time>2021-10-22T08:06:53Z</time>
      </trkpt>
      <trkpt lat="44.35049" lon="3.72769">
        <ele>1049.9</ele>
        <time>2021-10-22T08:06:56Z</time>
      </trkpt>
      <trkpt lat="44.35055" lon="3.72768">
        <ele>1049.42</ele>
        <time>2021-10-22T08:07:08Z</time>
      </trkpt>
      <trkpt lat="44.35054" lon="3.72764">
        <ele>1049.42</ele>
        <time>2021-10-22T08:07:21Z</time>
      </trkpt>
      <trkpt lat="44.35056" lon="3.72759">
        <ele>1048.94</ele>
        <time>2021-10-22T08:07:37Z</time>
      </trkpt>
      <trkpt lat="44.35061" lon="3.72749">
        <ele>1048.45</ele>
        <time>2021-10-22T08:07:46Z</time>
      </trkpt>
      <trkpt lat="44.35064" lon="3.72739">
        <ele>1047.97</ele>
        <time>2021-10-22T08:07:53Z</time>
      </trkpt>
      <trkpt lat="44.35063" lon="3.72735">
        <ele>1047.97</ele>
        <time>2021-10-22T08:07:56Z</time>
      </trkpt>
      <trkpt lat="44.35059" lon="3.72724">
        <ele>1047.49</ele>
        <time>2021-10-22T08:08:06Z</time>
      </trkpt>
      <trkpt lat="44.35057" lon="3.72717">
        <ele>1046.53</ele>
        <time>2021-10-22T08:08:11Z</time>
      </trkpt>
      <trkpt lat="44.35055" lon="3.72711">
        <ele>1047.01</ele>
        <time>2021-10-22T08:08:14Z</time>
      </trkpt>
      <trkpt lat="44.35052" lon="3.72702">
        <ele>1047.01</ele>
        <time>2021-10-22T08:08:20Z</time>
      </trkpt>
      <trkpt lat="44.35051" lon="3.72697">
        <ele>1046.53</ele>
        <time>2021-10-22T08:08:23Z</time>
      </trkpt>
      <trkpt lat="44.35048" lon="3.72687">
        <ele>1046.05</ele>
        <time>2021-10-22T08:08:36Z</time>
      </trkpt>
      <trkpt lat="44.35048" lon="3.72686">
        <ele>1046.53</ele>
        <time>2021-10-22T08:09:02Z</time>
      </trkpt>
      <trkpt lat="44.35045" lon="3.72673">
        <ele>1046.53</ele>
        <time>2021-10-22T08:09:10Z</time>
      </trkpt>
      <trkpt lat="44.35042" lon="3.72663">
        <ele>1046.05</ele>
        <time>2021-10-22T08:09:15Z</time>
      </trkpt>
      <trkpt lat="44.35038" lon="3.72651">
        <ele>1045.57</ele>
        <time>2021-10-22T08:09:23Z</time>
      </trkpt>
      <trkpt lat="44.35033" lon="3.72635">
        <ele>1046.05</ele>
        <time>2021-10-22T08:09:33Z</time>
      </trkpt>
      <trkpt lat="44.35032" lon="3.72632">
        <ele>1045.09</ele>
        <time>2021-10-22T08:09:35Z</time>
      </trkpt>
      <trkpt lat="44.35026" lon="3.72618">
        <ele>1045.09</ele>
        <time>2021-10-22T08:09:46Z</time>
      </trkpt>
      <trkpt lat="44.35021" lon="3.72613">
        <ele>1044.61</ele>
        <time>2021-10-22T08:09:50Z</time>
      </trkpt>
      <trkpt lat="44.35016" lon="3.72608">
        <ele>1044.61</ele>
        <time>2021-10-22T08:09:56Z</time>
      </trkpt>
      <trkpt lat="44.35012" lon="3.72609">
        <ele>1043.65</ele>
        <time>2021-10-22T08:10:03Z</time>
      </trkpt>
      <trkpt lat="44.35009" lon="3.72599">
        <ele>1044.13</ele>
        <time>2021-10-22T08:10:14Z</time>
      </trkpt>
      <trkpt lat="44.35009" lon="3.72599">
        <ele>1044.13</ele>
        <time>2021-10-22T08:10:27Z</time>
      </trkpt>
      <trkpt lat="44.35025" lon="3.72589">
        <ele>1043.65</ele>
        <time>2021-10-22T08:10:40Z</time>
      </trkpt>
      <trkpt lat="44.35031" lon="3.72583">
        <ele>1044.13</ele>
        <time>2021-10-22T08:10:47Z</time>
      </trkpt>
      <trkpt lat="44.35045" lon="3.72564">
        <ele>1043.65</ele>
        <time>2021-10-22T08:11:03Z</time>
      </trkpt>
      <trkpt lat="44.35049" lon="3.72563">
        <ele>1043.65</ele>
        <time>2021-10-22T08:11:06Z</time>
      </trkpt>
      <trkpt lat="44.35051" lon="3.72559">
        <ele>1043.17</ele>
        <time>2021-10-22T08:11:24Z</time>
      </trkpt>
      <trkpt lat="44.35055" lon="3.72553">
        <ele>1041.73</ele>
        <time>2021-10-22T08:11:38Z</time>
      </trkpt>
      <trkpt lat="44.35055" lon="3.72553">
        <ele>1043.65</ele>
        <time>2021-10-22T08:12:00Z</time>
      </trkpt>
      <trkpt lat="44.35061" lon="3.72546">
        <ele>1043.17</ele>
        <time>2021-10-22T08:12:07Z</time>
      </trkpt>
      <trkpt lat="44.35076" lon="3.72531">
        <ele>1043.65</ele>
        <time>2021-10-22T08:12:21Z</time>
      </trkpt>
      <trkpt lat="44.3509" lon="3.72517">
        <ele>1043.65</ele>
        <time>2021-10-22T08:12:34Z</time>
      </trkpt>
      <trkpt lat="44.35106" lon="3.72503">
        <ele>1043.65</ele>
        <time>2021-10-22T08:12:46Z</time>
      </trkpt>
      <trkpt lat="44.35109" lon="3.72499">
        <ele>1044.13</ele>
        <time>2021-10-22T08:12:52Z</time>
      </trkpt>
      <trkpt lat="44.35124" lon="3.72478">
        <ele>1043.65</ele>
        <time>2021-10-22T08:13:05Z</time>
      </trkpt>
      <trkpt lat="44.35133" lon="3.72462">
        <ele>1042.69</ele>
        <time>2021-10-22T08:13:20Z</time>
      </trkpt>
      <trkpt lat="44.35147" lon="3.72437">
        <ele>1042.21</ele>
        <time>2021-10-22T08:13:33Z</time>
      </trkpt>
      <trkpt lat="44.35152" lon="3.7243">
        <ele>1041.73</ele>
        <time>2021-10-22T08:13:41Z</time>
      </trkpt>
      <trkpt lat="44.35169" lon="3.72406">
        <ele>1039.8</ele>
        <time>2021-10-22T08:13:57Z</time>
      </trkpt>
      <trkpt lat="44.35173" lon="3.72403">
        <ele>1038.84</ele>
        <time>2021-10-22T08:14:03Z</time>
      </trkpt>
      <trkpt lat="44.35182" lon="3.72394">
        <ele>1038.36</ele>
        <time>2021-10-22T08:14:10Z</time>
      </trkpt>
      <trkpt lat="44.35197" lon="3.72371">
        <ele>1036.92</ele>
        <time>2021-10-22T08:14:24Z</time>
      </trkpt>
      <trkpt lat="44.3521" lon="3.72355">
        <ele>1035.48</ele>
        <time>2021-10-22T08:14:39Z</time>
      </trkpt>
      <trkpt lat="44.35221" lon="3.72333">
        <ele>1034.52</ele>
        <time>2021-10-22T08:14:51Z</time>
      </trkpt>
      <trkpt lat="44.35229" lon="3.72316">
        <ele>1033.07</ele>
        <time>2021-10-22T08:15:03Z</time>
      </trkpt>
      <trkpt lat="44.35236" lon="3.7231">
        <ele>1032.11</ele>
        <time>2021-10-22T08:15:16Z</time>
      </trkpt>
      <trkpt lat="44.3524" lon="3.72306">
        <ele>1031.63</ele>
        <time>2021-10-22T08:15:32Z</time>
      </trkpt>
      <trkpt lat="44.3524" lon="3.72305">
        <ele>1031.15</ele>
        <time>2021-10-22T08:15:33Z</time>
      </trkpt>
      <trkpt lat="44.35248" lon="3.72301">
        <ele>1030.67</ele>
        <time>2021-10-22T08:15:41Z</time>
      </trkpt>
      <trkpt lat="44.35261" lon="3.72287">
        <ele>1028.75</ele>
        <time>2021-10-22T08:15:54Z</time>
      </trkpt>
      <trkpt lat="44.35266" lon="3.72281">
        <ele>1027.31</ele>
        <time>2021-10-22T08:15:58Z</time>
      </trkpt>
      <trkpt lat="44.3527" lon="3.72259">
        <ele>1025.38</ele>
        <time>2021-10-22T08:16:10Z</time>
      </trkpt>
      <trkpt lat="44.35274" lon="3.72236">
        <ele>1023.94</ele>
        <time>2021-10-22T08:16:22Z</time>
      </trkpt>
      <trkpt lat="44.35277" lon="3.72218">
        <ele>1022.5</ele>
        <time>2021-10-22T08:16:33Z</time>
      </trkpt>
      <trkpt lat="44.35279" lon="3.72215">
        <ele>1022.02</ele>
        <time>2021-10-22T08:16:35Z</time>
      </trkpt>
      <trkpt lat="44.35299" lon="3.72206">
        <ele>1019.62</ele>
        <time>2021-10-22T08:16:50Z</time>
      </trkpt>
      <trkpt lat="44.35301" lon="3.72211">
        <ele>1018.17</ele>
        <time>2021-10-22T08:16:54Z</time>
      </trkpt>
      <trkpt lat="44.35306" lon="3.72222">
        <ele>1017.21</ele>
        <time>2021-10-22T08:17:01Z</time>
      </trkpt>
      <trkpt lat="44.35317" lon="3.72237">
        <ele>1014.81</ele>
        <time>2021-10-22T08:17:13Z</time>
      </trkpt>
      <trkpt lat="44.3533" lon="3.72258">
        <ele>1011.93</ele>
        <time>2021-10-22T08:17:26Z</time>
      </trkpt>
      <trkpt lat="44.3533" lon="3.72259">
        <ele>1011.93</ele>
        <time>2021-10-22T08:17:27Z</time>
      </trkpt>
      <trkpt lat="44.35327" lon="3.72278">
        <ele>1010</ele>
        <time>2021-10-22T08:17:40Z</time>
      </trkpt>
      <trkpt lat="44.35324" lon="3.72313">
        <ele>1008.56</ele>
        <time>2021-10-22T08:17:56Z</time>
      </trkpt>
      <trkpt lat="44.35325" lon="3.72319">
        <ele>1008.08</ele>
        <time>2021-10-22T08:18:01Z</time>
      </trkpt>
      <trkpt lat="44.35325" lon="3.72328">
        <ele>1007.6</ele>
        <time>2021-10-22T08:18:14Z</time>
      </trkpt>
      <trkpt lat="44.35327" lon="3.72331">
        <ele>1007.12</ele>
        <time>2021-10-22T08:18:16Z</time>
      </trkpt>
      <trkpt lat="44.35334" lon="3.72356">
        <ele>1006.16</ele>
        <time>2021-10-22T08:18:30Z</time>
      </trkpt>
      <trkpt lat="44.35343" lon="3.72384">
        <ele>1004.72</ele>
        <time>2021-10-22T08:18:44Z</time>
      </trkpt>
      <trkpt lat="44.35341" lon="3.72411">
        <ele>1003.27</ele>
        <time>2021-10-22T08:18:59Z</time>
      </trkpt>
      <trkpt lat="44.35339" lon="3.72437">
        <ele>1001.83</ele>
        <time>2021-10-22T08:19:13Z</time>
      </trkpt>
      <trkpt lat="44.35338" lon="3.72449">
        <ele>1001.83</ele>
        <time>2021-10-22T08:19:19Z</time>
      </trkpt>
      <trkpt lat="44.35342" lon="3.72481">
        <ele>1000.39</ele>
        <time>2021-10-22T08:19:32Z</time>
      </trkpt>
      <trkpt lat="44.3535" lon="3.72492">
        <ele>999.43</ele>
        <time>2021-10-22T08:19:46Z</time>
      </trkpt>
      <trkpt lat="44.35352" lon="3.72492">
        <ele>999.43</ele>
        <time>2021-10-22T08:19:49Z</time>
      </trkpt>
      <trkpt lat="44.35361" lon="3.72495">
        <ele>998.95</ele>
        <time>2021-10-22T08:19:57Z</time>
      </trkpt>
      <trkpt lat="44.35365" lon="3.72497">
        <ele>998.95</ele>
        <time>2021-10-22T08:20:00Z</time>
      </trkpt>
      <trkpt lat="44.35372" lon="3.72499">
        <ele>997.99</ele>
        <time>2021-10-22T08:20:13Z</time>
      </trkpt>
      <trkpt lat="44.35373" lon="3.72499">
        <ele>997.99</ele>
        <time>2021-10-22T08:20:17Z</time>
      </trkpt>
      <trkpt lat="44.35377" lon="3.725">
        <ele>997.51</ele>
        <time>2021-10-22T08:20:22Z</time>
      </trkpt>
      <trkpt lat="44.35394" lon="3.72504">
        <ele>997.02</ele>
        <time>2021-10-22T08:20:32Z</time>
      </trkpt>
      <trkpt lat="44.35408" lon="3.7251">
        <ele>996.06</ele>
        <time>2021-10-22T08:20:46Z</time>
      </trkpt>
      <trkpt lat="44.35413" lon="3.72521">
        <ele>995.1</ele>
        <time>2021-10-22T08:20:54Z</time>
      </trkpt>
      <trkpt lat="44.3542" lon="3.72538">
        <ele>994.62</ele>
        <time>2021-10-22T08:21:06Z</time>
      </trkpt>
      <trkpt lat="44.3542" lon="3.72539">
        <ele>994.14</ele>
        <time>2021-10-22T08:21:07Z</time>
      </trkpt>
      <trkpt lat="44.35437" lon="3.72555">
        <ele>993.66</ele>
        <time>2021-10-22T08:21:20Z</time>
      </trkpt>
      <trkpt lat="44.35452" lon="3.72565">
        <ele>992.22</ele>
        <time>2021-10-22T08:21:33Z</time>
      </trkpt>
      <trkpt lat="44.35468" lon="3.72572">
        <ele>991.74</ele>
        <time>2021-10-22T08:21:45Z</time>
      </trkpt>
      <trkpt lat="44.35485" lon="3.72578">
        <ele>990.78</ele>
        <time>2021-10-22T08:21:58Z</time>
      </trkpt>
      <trkpt lat="44.35488" lon="3.72578">
        <ele>990.3</ele>
        <time>2021-10-22T08:22:17Z</time>
      </trkpt>
      <trkpt lat="44.35489" lon="3.72577">
        <ele>990.3</ele>
        <time>2021-10-22T08:22:32Z</time>
      </trkpt>
      <trkpt lat="44.35488" lon="3.72577">
        <ele>989.33</ele>
        <time>2021-10-22T08:22:48Z</time>
      </trkpt>
      <trkpt lat="44.35488" lon="3.72577">
        <ele>989.81</ele>
        <time>2021-10-22T08:23:09Z</time>
      </trkpt>
      <trkpt lat="44.35489" lon="3.72579">
        <ele>990.3</ele>
        <time>2021-10-22T08:23:31Z</time>
      </trkpt>
      <trkpt lat="44.35491" lon="3.7258">
        <ele>989.81</ele>
        <time>2021-10-22T08:23:54Z</time>
      </trkpt>
      <trkpt lat="44.35493" lon="3.72582">
        <ele>989.81</ele>
        <time>2021-10-22T08:24:12Z</time>
      </trkpt>
      <trkpt lat="44.35493" lon="3.72577">
        <ele>989.81</ele>
        <time>2021-10-22T08:24:31Z</time>
      </trkpt>
      <trkpt lat="44.35493" lon="3.72573">
        <ele>990.3</ele>
        <time>2021-10-22T08:24:41Z</time>
      </trkpt>
      <trkpt lat="44.35494" lon="3.72572">
        <ele>989.81</ele>
        <time>2021-10-22T08:24:57Z</time>
      </trkpt>
      <trkpt lat="44.35495" lon="3.72572">
        <ele>989.81</ele>
        <time>2021-10-22T08:25:19Z</time>
      </trkpt>
      <trkpt lat="44.35491" lon="3.72568">
        <ele>990.3</ele>
        <time>2021-10-22T08:25:34Z</time>
      </trkpt>
      <trkpt lat="44.35491" lon="3.72568">
        <ele>990.3</ele>
        <time>2021-10-22T08:25:53Z</time>
      </trkpt>
      <trkpt lat="44.35491" lon="3.72567">
        <ele>991.26</ele>
        <time>2021-10-22T08:26:04Z</time>
      </trkpt>
      <trkpt lat="44.35491" lon="3.72567">
        <ele>990.78</ele>
        <time>2021-10-22T08:26:25Z</time>
      </trkpt>
      <trkpt lat="44.35491" lon="3.7257">
        <ele>990.78</ele>
        <time>2021-10-22T08:26:42Z</time>
      </trkpt>
      <trkpt lat="44.35493" lon="3.72574">
        <ele>990.3</ele>
        <time>2021-10-22T08:27:01Z</time>
      </trkpt>
      <trkpt lat="44.35493" lon="3.72574">
        <ele>990.3</ele>
        <time>2021-10-22T08:27:21Z</time>
      </trkpt>
      <trkpt lat="44.35493" lon="3.72574">
        <ele>990.3</ele>
        <time>2021-10-22T08:27:37Z</time>
      </trkpt>
      <trkpt lat="44.35494" lon="3.72574">
        <ele>990.3</ele>
        <time>2021-10-22T08:27:53Z</time>
      </trkpt>
      <trkpt lat="44.35494" lon="3.72574">
        <ele>990.78</ele>
        <time>2021-10-22T08:28:08Z</time>
      </trkpt>
      <trkpt lat="44.35493" lon="3.72571">
        <ele>990.78</ele>
        <time>2021-10-22T08:28:23Z</time>
      </trkpt>
      <trkpt lat="44.35493" lon="3.72571">
        <ele>991.26</ele>
        <time>2021-10-22T08:28:38Z</time>
      </trkpt>
      <trkpt lat="44.35488" lon="3.72567">
        <ele>990.78</ele>
        <time>2021-10-22T08:28:52Z</time>
      </trkpt>
      <trkpt lat="44.35488" lon="3.72567">
        <ele>991.26</ele>
        <time>2021-10-22T08:29:08Z</time>
      </trkpt>
      <trkpt lat="44.35488" lon="3.72567">
        <ele>991.26</ele>
        <time>2021-10-22T08:29:09Z</time>
      </trkpt>
      <trkpt lat="44.35492" lon="3.72573">
        <ele>990.78</ele>
        <time>2021-10-22T08:29:27Z</time>
      </trkpt>
      <trkpt lat="44.35506" lon="3.72568">
        <ele>989.81</ele>
        <time>2021-10-22T08:29:41Z</time>
      </trkpt>
      <trkpt lat="44.3551" lon="3.72568">
        <ele>989.81</ele>
        <time>2021-10-22T08:29:43Z</time>
      </trkpt>
      <trkpt lat="44.35519" lon="3.72572">
        <ele>989.81</ele>
        <time>2021-10-22T08:29:56Z</time>
      </trkpt>
      <trkpt lat="44.35529" lon="3.72568">
        <ele>988.85</ele>
        <time>2021-10-22T08:30:11Z</time>
      </trkpt>
      <trkpt lat="44.35531" lon="3.72567">
        <ele>988.37</ele>
        <time>2021-10-22T08:30:13Z</time>
      </trkpt>
      <trkpt lat="44.35539" lon="3.72567">
        <ele>988.37</ele>
        <time>2021-10-22T08:30:29Z</time>
      </trkpt>
      <trkpt lat="44.35542" lon="3.72566">
        <ele>987.89</ele>
        <time>2021-10-22T08:30:42Z</time>
      </trkpt>
      <trkpt lat="44.35547" lon="3.72563">
        <ele>988.37</ele>
        <time>2021-10-22T08:30:55Z</time>
      </trkpt>
      <trkpt lat="44.35546" lon="3.72563">
        <ele>988.37</ele>
        <time>2021-10-22T08:31:13Z</time>
      </trkpt>
      <trkpt lat="44.35546" lon="3.72563">
        <ele>987.89</ele>
        <time>2021-10-22T08:31:37Z</time>
      </trkpt>
      <trkpt lat="44.3556" lon="3.72561">
        <ele>987.41</ele>
        <time>2021-10-22T08:31:50Z</time>
      </trkpt>
      <trkpt lat="44.3557" lon="3.72557">
        <ele>987.41</ele>
        <time>2021-10-22T08:31:58Z</time>
      </trkpt>
      <trkpt lat="44.35577" lon="3.72552">
        <ele>986.93</ele>
        <time>2021-10-22T08:32:04Z</time>
      </trkpt>
      <trkpt lat="44.35592" lon="3.7254">
        <ele>985.97</ele>
        <time>2021-10-22T08:32:18Z</time>
      </trkpt>
      <trkpt lat="44.356" lon="3.72536">
        <ele>985.49</ele>
        <time>2021-10-22T08:32:25Z</time>
      </trkpt>
      <trkpt lat="44.35605" lon="3.72534">
        <ele>985.49</ele>
        <time>2021-10-22T08:32:29Z</time>
      </trkpt>
      <trkpt lat="44.35628" lon="3.72534">
        <ele>984.05</ele>
        <time>2021-10-22T08:32:44Z</time>
      </trkpt>
      <trkpt lat="44.35645" lon="3.72546">
        <ele>983.09</ele>
        <time>2021-10-22T08:32:58Z</time>
      </trkpt>
      <trkpt lat="44.35652" lon="3.72555">
        <ele>982.12</ele>
        <time>2021-10-22T08:33:13Z</time>
      </trkpt>
      <trkpt lat="44.35653" lon="3.72555">
        <ele>982.6</ele>
        <time>2021-10-22T08:33:25Z</time>
      </trkpt>
      <trkpt lat="44.35655" lon="3.72558">
        <ele>982.12</ele>
        <time>2021-10-22T08:33:28Z</time>
      </trkpt>
      <trkpt lat="44.35657" lon="3.72566">
        <ele>981.64</ele>
        <time>2021-10-22T08:33:34Z</time>
      </trkpt>
      <trkpt lat="44.35657" lon="3.72572">
        <ele>981.64</ele>
        <time>2021-10-22T08:33:38Z</time>
      </trkpt>
      <trkpt lat="44.35656" lon="3.72589">
        <ele>980.68</ele>
        <time>2021-10-22T08:33:49Z</time>
      </trkpt>
      <trkpt lat="44.35652" lon="3.72608">
        <ele>979.72</ele>
        <time>2021-10-22T08:33:58Z</time>
      </trkpt>
      <trkpt lat="44.35655" lon="3.72633">
        <ele>978.76</ele>
        <time>2021-10-22T08:34:13Z</time>
      </trkpt>
      <trkpt lat="44.35661" lon="3.7266">
        <ele>977.32</ele>
        <time>2021-10-22T08:34:28Z</time>
      </trkpt>
      <trkpt lat="44.35664" lon="3.72675">
        <ele>976.36</ele>
        <time>2021-10-22T08:34:42Z</time>
      </trkpt>
      <trkpt lat="44.35669" lon="3.72686">
        <ele>975.88</ele>
        <time>2021-10-22T08:35:04Z</time>
      </trkpt>
      <trkpt lat="44.35676" lon="3.72713">
        <ele>974.91</ele>
        <time>2021-10-22T08:35:18Z</time>
      </trkpt>
      <trkpt lat="44.35683" lon="3.72735">
        <ele>973.47</ele>
        <time>2021-10-22T08:35:36Z</time>
      </trkpt>
      <trkpt lat="44.35684" lon="3.72738">
        <ele>972.99</ele>
        <time>2021-10-22T08:35:57Z</time>
      </trkpt>
      <trkpt lat="44.35685" lon="3.72739">
        <ele>972.99</ele>
        <time>2021-10-22T08:36:20Z</time>
      </trkpt>
      <trkpt lat="44.35689" lon="3.72746">
        <ele>972.99</ele>
        <time>2021-10-22T08:36:40Z</time>
      </trkpt>
      <trkpt lat="44.35691" lon="3.72754">
        <ele>972.51</ele>
        <time>2021-10-22T08:36:55Z</time>
      </trkpt>
      <trkpt lat="44.35694" lon="3.72761">
        <ele>972.51</ele>
        <time>2021-10-22T08:37:13Z</time>
      </trkpt>
      <trkpt lat="44.35706" lon="3.7279">
        <ele>971.07</ele>
        <time>2021-10-22T08:37:30Z</time>
      </trkpt>
      <trkpt lat="44.35719" lon="3.72811">
        <ele>969.15</ele>
        <time>2021-10-22T08:37:46Z</time>
      </trkpt>
      <trkpt lat="44.35728" lon="3.72832">
        <ele>968.67</ele>
        <time>2021-10-22T08:37:57Z</time>
      </trkpt>
      <trkpt lat="44.35731" lon="3.72848">
        <ele>967.7</ele>
        <time>2021-10-22T08:38:12Z</time>
      </trkpt>
      <trkpt lat="44.35731" lon="3.72848">
        <ele>968.18</ele>
        <time>2021-10-22T08:38:23Z</time>
      </trkpt>
      <trkpt lat="44.35737" lon="3.72862">
        <ele>967.22</ele>
        <time>2021-10-22T08:38:33Z</time>
      </trkpt>
      <trkpt lat="44.35737" lon="3.72867">
        <ele>967.22</ele>
        <time>2021-10-22T08:38:35Z</time>
      </trkpt>
      <trkpt lat="44.35742" lon="3.72886">
        <ele>966.26</ele>
        <time>2021-10-22T08:38:47Z</time>
      </trkpt>
      <trkpt lat="44.35742" lon="3.72886">
        <ele>966.26</ele>
        <time>2021-10-22T08:38:48Z</time>
      </trkpt>
      <trkpt lat="44.35744" lon="3.72901">
        <ele>965.78</ele>
        <time>2021-10-22T08:38:55Z</time>
      </trkpt>
      <trkpt lat="44.35742" lon="3.72906">
        <ele>965.3</ele>
        <time>2021-10-22T08:39:02Z</time>
      </trkpt>
      <trkpt lat="44.3574" lon="3.72919">
        <ele>964.82</ele>
        <time>2021-10-22T08:39:08Z</time>
      </trkpt>
      <trkpt lat="44.3574" lon="3.72943">
        <ele>963.86</ele>
        <time>2021-10-22T08:39:23Z</time>
      </trkpt>
      <trkpt lat="44.3574" lon="3.72943">
        <ele>963.38</ele>
        <time>2021-10-22T08:39:26Z</time>
      </trkpt>
      <trkpt lat="44.35738" lon="3.72972">
        <ele>962.42</ele>
        <time>2021-10-22T08:39:39Z</time>
      </trkpt>
      <trkpt lat="44.35734" lon="3.72993">
        <ele>960.98</ele>
        <time>2021-10-22T08:39:52Z</time>
      </trkpt>
      <trkpt lat="44.35734" lon="3.73004">
        <ele>960.49</ele>
        <time>2021-10-22T08:40:05Z</time>
      </trkpt>
      <trkpt lat="44.35747" lon="3.7302">
        <ele>960.01</ele>
        <time>2021-10-22T08:40:19Z</time>
      </trkpt>
      <trkpt lat="44.35749" lon="3.73018">
        <ele>960.01</ele>
        <time>2021-10-22T08:40:37Z</time>
      </trkpt>
      <trkpt lat="44.35749" lon="3.73018">
        <ele>960.01</ele>
        <time>2021-10-22T08:41:01Z</time>
      </trkpt>
      <trkpt lat="44.35748" lon="3.73019">
        <ele>960.01</ele>
        <time>2021-10-22T08:41:29Z</time>
      </trkpt>
      <trkpt lat="44.3576" lon="3.73027">
        <ele>959.05</ele>
        <time>2021-10-22T08:41:47Z</time>
      </trkpt>
      <trkpt lat="44.3577" lon="3.73033">
        <ele>958.57</ele>
        <time>2021-10-22T08:41:57Z</time>
      </trkpt>
      <trkpt lat="44.35788" lon="3.73043">
        <ele>957.61</ele>
        <time>2021-10-22T08:42:12Z</time>
      </trkpt>
      <trkpt lat="44.35802" lon="3.73054">
        <ele>956.17</ele>
        <time>2021-10-22T08:42:25Z</time>
      </trkpt>
      <trkpt lat="44.35815" lon="3.73058">
        <ele>955.69</ele>
        <time>2021-10-22T08:42:39Z</time>
      </trkpt>
      <trkpt lat="44.35821" lon="3.73056">
        <ele>955.69</ele>
        <time>2021-10-22T08:42:42Z</time>
      </trkpt>
      <trkpt lat="44.3584" lon="3.73047">
        <ele>954.25</ele>
        <time>2021-10-22T08:42:52Z</time>
      </trkpt>
      <trkpt lat="44.35856" lon="3.73049">
        <ele>953.28</ele>
        <time>2021-10-22T08:43:05Z</time>
      </trkpt>
      <trkpt lat="44.35861" lon="3.7305">
        <ele>953.28</ele>
        <time>2021-10-22T08:43:08Z</time>
      </trkpt>
      <trkpt lat="44.35867" lon="3.73051">
        <ele>952.8</ele>
        <time>2021-10-22T08:43:12Z</time>
      </trkpt>
      <trkpt lat="44.3588" lon="3.73059">
        <ele>951.84</ele>
        <time>2021-10-22T08:43:22Z</time>
      </trkpt>
      <trkpt lat="44.3589" lon="3.73076">
        <ele>951.36</ele>
        <time>2021-10-22T08:43:29Z</time>
      </trkpt>
      <trkpt lat="44.35896" lon="3.731">
        <ele>950.4</ele>
        <time>2021-10-22T08:43:41Z</time>
      </trkpt>
      <trkpt lat="44.35903" lon="3.73125">
        <ele>949.44</ele>
        <time>2021-10-22T08:43:57Z</time>
      </trkpt>
      <trkpt lat="44.35915" lon="3.73149">
        <ele>948</ele>
        <time>2021-10-22T08:44:10Z</time>
      </trkpt>
      <trkpt lat="44.35924" lon="3.73161">
        <ele>947.04</ele>
        <time>2021-10-22T08:44:19Z</time>
      </trkpt>
      <trkpt lat="44.35929" lon="3.73167">
        <ele>947.04</ele>
        <time>2021-10-22T08:44:30Z</time>
      </trkpt>
      <trkpt lat="44.3593" lon="3.73173">
        <ele>947.04</ele>
        <time>2021-10-22T08:44:33Z</time>
      </trkpt>
      <trkpt lat="44.35932" lon="3.73191">
        <ele>946.07</ele>
        <time>2021-10-22T08:44:43Z</time>
      </trkpt>
      <trkpt lat="44.35934" lon="3.73218">
        <ele>945.59</ele>
        <time>2021-10-22T08:44:54Z</time>
      </trkpt>
      <trkpt lat="44.35925" lon="3.73228">
        <ele>944.63</ele>
        <time>2021-10-22T08:45:04Z</time>
      </trkpt>
      <trkpt lat="44.359" lon="3.7324">
        <ele>943.19</ele>
        <time>2021-10-22T08:45:20Z</time>
      </trkpt>
      <trkpt lat="44.35886" lon="3.73258">
        <ele>942.23</ele>
        <time>2021-10-22T08:45:31Z</time>
      </trkpt>
      <trkpt lat="44.35885" lon="3.73265">
        <ele>942.23</ele>
        <time>2021-10-22T08:45:35Z</time>
      </trkpt>
      <trkpt lat="44.3588" lon="3.7329">
        <ele>940.79</ele>
        <time>2021-10-22T08:45:50Z</time>
      </trkpt>
      <trkpt lat="44.3588" lon="3.73292">
        <ele>940.31</ele>
        <time>2021-10-22T08:45:51Z</time>
      </trkpt>
      <trkpt lat="44.35889" lon="3.7332">
        <ele>939.35</ele>
        <time>2021-10-22T08:46:06Z</time>
      </trkpt>
      <trkpt lat="44.35901" lon="3.73332">
        <ele>938.86</ele>
        <time>2021-10-22T08:46:11Z</time>
      </trkpt>
      <trkpt lat="44.35904" lon="3.73337">
        <ele>938.86</ele>
        <time>2021-10-22T08:46:13Z</time>
      </trkpt>
      <trkpt lat="44.35909" lon="3.73342">
        <ele>938.38</ele>
        <time>2021-10-22T08:46:16Z</time>
      </trkpt>
      <trkpt lat="44.3591" lon="3.73355">
        <ele>937.9</ele>
        <time>2021-10-22T08:46:23Z</time>
      </trkpt>
      <trkpt lat="44.35904" lon="3.73374">
        <ele>936.94</ele>
        <time>2021-10-22T08:46:34Z</time>
      </trkpt>
      <trkpt lat="44.35904" lon="3.73381">
        <ele>936.94</ele>
        <time>2021-10-22T08:46:38Z</time>
      </trkpt>
      <trkpt lat="44.35901" lon="3.73388">
        <ele>936.46</ele>
        <time>2021-10-22T08:46:42Z</time>
      </trkpt>
      <trkpt lat="44.35898" lon="3.73398">
        <ele>935.98</ele>
        <time>2021-10-22T08:46:47Z</time>
      </trkpt>
      <trkpt lat="44.35898" lon="3.73403">
        <ele>935.98</ele>
        <time>2021-10-22T08:46:49Z</time>
      </trkpt>
      <trkpt lat="44.35896" lon="3.73409">
        <ele>935.5</ele>
        <time>2021-10-22T08:46:53Z</time>
      </trkpt>
      <trkpt lat="44.35891" lon="3.73432">
        <ele>934.54</ele>
        <time>2021-10-22T08:47:04Z</time>
      </trkpt>
      <trkpt lat="44.35882" lon="3.73457">
        <ele>933.58</ele>
        <time>2021-10-22T08:47:18Z</time>
      </trkpt>
      <trkpt lat="44.35876" lon="3.73475">
        <ele>932.62</ele>
        <time>2021-10-22T08:47:26Z</time>
      </trkpt>
      <trkpt lat="44.35876" lon="3.73485">
        <ele>932.62</ele>
        <time>2021-10-22T08:47:30Z</time>
      </trkpt>
      <trkpt lat="44.35887" lon="3.73517">
        <ele>931.17</ele>
        <time>2021-10-22T08:47:44Z</time>
      </trkpt>
      <trkpt lat="44.35884" lon="3.73523">
        <ele>930.69</ele>
        <time>2021-10-22T08:47:49Z</time>
      </trkpt>
      <trkpt lat="44.35895" lon="3.73557">
        <ele>928.77</ele>
        <time>2021-10-22T08:48:07Z</time>
      </trkpt>
      <trkpt lat="44.35909" lon="3.73577">
        <ele>927.81</ele>
        <time>2021-10-22T08:48:22Z</time>
      </trkpt>
      <trkpt lat="44.35927" lon="3.73599">
        <ele>926.37</ele>
        <time>2021-10-22T08:48:37Z</time>
      </trkpt>
      <trkpt lat="44.35929" lon="3.73602">
        <ele>926.37</ele>
        <time>2021-10-22T08:48:39Z</time>
      </trkpt>
      <trkpt lat="44.35945" lon="3.73625">
        <ele>924.45</ele>
        <time>2021-10-22T08:48:58Z</time>
      </trkpt>
      <trkpt lat="44.35948" lon="3.73623">
        <ele>924.93</ele>
        <time>2021-10-22T08:49:14Z</time>
      </trkpt>
      <trkpt lat="44.35954" lon="3.73626">
        <ele>924.45</ele>
        <time>2021-10-22T08:49:19Z</time>
      </trkpt>
      <trkpt lat="44.35971" lon="3.73644">
        <ele>923.48</ele>
        <time>2021-10-22T08:49:36Z</time>
      </trkpt>
      <trkpt lat="44.35976" lon="3.73674">
        <ele>922.52</ele>
        <time>2021-10-22T08:49:49Z</time>
      </trkpt>
      <trkpt lat="44.35981" lon="3.73687">
        <ele>922.04</ele>
        <time>2021-10-22T08:49:56Z</time>
      </trkpt>
      <trkpt lat="44.35992" lon="3.73698">
        <ele>921.56</ele>
        <time>2021-10-22T08:50:03Z</time>
      </trkpt>
      <trkpt lat="44.35998" lon="3.73714">
        <ele>920.12</ele>
        <time>2021-10-22T08:50:15Z</time>
      </trkpt>
      <trkpt lat="44.36002" lon="3.73725">
        <ele>919.16</ele>
        <time>2021-10-22T08:50:24Z</time>
      </trkpt>
      <trkpt lat="44.36013" lon="3.73729">
        <ele>918.68</ele>
        <time>2021-10-22T08:50:30Z</time>
      </trkpt>
      <trkpt lat="44.36017" lon="3.73729">
        <ele>918.68</ele>
        <time>2021-10-22T08:50:33Z</time>
      </trkpt>
      <trkpt lat="44.36027" lon="3.73735">
        <ele>918.2</ele>
        <time>2021-10-22T08:50:39Z</time>
      </trkpt>
      <trkpt lat="44.36043" lon="3.73755">
        <ele>917.24</ele>
        <time>2021-10-22T08:50:54Z</time>
      </trkpt>
      <trkpt lat="44.36044" lon="3.73754">
        <ele>916.75</ele>
        <time>2021-10-22T08:50:56Z</time>
      </trkpt>
      <trkpt lat="44.36051" lon="3.73754">
        <ele>916.75</ele>
        <time>2021-10-22T08:51:02Z</time>
      </trkpt>
      <trkpt lat="44.3606" lon="3.73765">
        <ele>915.79</ele>
        <time>2021-10-22T08:51:10Z</time>
      </trkpt>
      <trkpt lat="44.36077" lon="3.73784">
        <ele>914.83</ele>
        <time>2021-10-22T08:51:25Z</time>
      </trkpt>
      <trkpt lat="44.36092" lon="3.7379">
        <ele>913.87</ele>
        <time>2021-10-22T08:51:36Z</time>
      </trkpt>
      <trkpt lat="44.36109" lon="3.73794">
        <ele>912.91</ele>
        <time>2021-10-22T08:51:48Z</time>
      </trkpt>
      <trkpt lat="44.36125" lon="3.73805">
        <ele>911.95</ele>
        <time>2021-10-22T08:51:59Z</time>
      </trkpt>
      <trkpt lat="44.36138" lon="3.73825">
        <ele>911.47</ele>
        <time>2021-10-22T08:52:11Z</time>
      </trkpt>
      <trkpt lat="44.36153" lon="3.73845">
        <ele>910.03</ele>
        <time>2021-10-22T08:52:24Z</time>
      </trkpt>
      <trkpt lat="44.36165" lon="3.7385">
        <ele>909.06</ele>
        <time>2021-10-22T08:52:37Z</time>
      </trkpt>
      <trkpt lat="44.36187" lon="3.73849">
        <ele>908.58</ele>
        <time>2021-10-22T08:52:49Z</time>
      </trkpt>
      <trkpt lat="44.36207" lon="3.73852">
        <ele>907.62</ele>
        <time>2021-10-22T08:53:00Z</time>
      </trkpt>
      <trkpt lat="44.36225" lon="3.73849">
        <ele>906.66</ele>
        <time>2021-10-22T08:53:15Z</time>
      </trkpt>
      <trkpt lat="44.36244" lon="3.73842">
        <ele>905.7</ele>
        <time>2021-10-22T08:53:29Z</time>
      </trkpt>
      <trkpt lat="44.36257" lon="3.73836">
        <ele>905.22</ele>
        <time>2021-10-22T08:53:38Z</time>
      </trkpt>
      <trkpt lat="44.36268" lon="3.73833">
        <ele>905.22</ele>
        <time>2021-10-22T08:53:44Z</time>
      </trkpt>
      <trkpt lat="44.36287" lon="3.7382">
        <ele>903.78</ele>
        <time>2021-10-22T08:53:58Z</time>
      </trkpt>
      <trkpt lat="44.36302" lon="3.73814">
        <ele>902.82</ele>
        <time>2021-10-22T08:54:12Z</time>
      </trkpt>
      <trkpt lat="44.36308" lon="3.73813">
        <ele>902.33</ele>
        <time>2021-10-22T08:54:16Z</time>
      </trkpt>
      <trkpt lat="44.3632" lon="3.73812">
        <ele>901.85</ele>
        <time>2021-10-22T08:54:23Z</time>
      </trkpt>
      <trkpt lat="44.36331" lon="3.73808">
        <ele>901.37</ele>
        <time>2021-10-22T08:54:35Z</time>
      </trkpt>
      <trkpt lat="44.36333" lon="3.73808">
        <ele>900.89</ele>
        <time>2021-10-22T08:54:37Z</time>
      </trkpt>
      <trkpt lat="44.36348" lon="3.73805">
        <ele>900.41</ele>
        <time>2021-10-22T08:54:51Z</time>
      </trkpt>
      <trkpt lat="44.36352" lon="3.73804">
        <ele>899.93</ele>
        <time>2021-10-22T08:54:54Z</time>
      </trkpt>
      <trkpt lat="44.36359" lon="3.73804">
        <ele>899.45</ele>
        <time>2021-10-22T08:54:58Z</time>
      </trkpt>
      <trkpt lat="44.36382" lon="3.73796">
        <ele>898.97</ele>
        <time>2021-10-22T08:55:10Z</time>
      </trkpt>
      <trkpt lat="44.36387" lon="3.73795">
        <ele>898.49</ele>
        <time>2021-10-22T08:55:14Z</time>
      </trkpt>
      <trkpt lat="44.36391" lon="3.73796">
        <ele>898.01</ele>
        <time>2021-10-22T08:55:19Z</time>
      </trkpt>
      <trkpt lat="44.36404" lon="3.73805">
        <ele>897.53</ele>
        <time>2021-10-22T08:55:30Z</time>
      </trkpt>
      <trkpt lat="44.36404" lon="3.73812">
        <ele>897.53</ele>
        <time>2021-10-22T08:55:34Z</time>
      </trkpt>
      <trkpt lat="44.36394" lon="3.73841">
        <ele>896.57</ele>
        <time>2021-10-22T08:55:47Z</time>
      </trkpt>
      <trkpt lat="44.36392" lon="3.73856">
        <ele>895.12</ele>
        <time>2021-10-22T08:55:59Z</time>
      </trkpt>
      <trkpt lat="44.36387" lon="3.73873">
        <ele>894.16</ele>
        <time>2021-10-22T08:56:10Z</time>
      </trkpt>
      <trkpt lat="44.36387" lon="3.73877">
        <ele>893.68</ele>
        <time>2021-10-22T08:56:12Z</time>
      </trkpt>
      <trkpt lat="44.36385" lon="3.7388">
        <ele>893.68</ele>
        <time>2021-10-22T08:56:14Z</time>
      </trkpt>
      <trkpt lat="44.36384" lon="3.73883">
        <ele>893.68</ele>
        <time>2021-10-22T08:56:16Z</time>
      </trkpt>
      <trkpt lat="44.36382" lon="3.73886">
        <ele>893.68</ele>
        <time>2021-10-22T08:56:18Z</time>
      </trkpt>
      <trkpt lat="44.36383" lon="3.73896">
        <ele>893.68</ele>
        <time>2021-10-22T08:56:23Z</time>
      </trkpt>
      <trkpt lat="44.36382" lon="3.73928">
        <ele>892.72</ele>
        <time>2021-10-22T08:56:38Z</time>
      </trkpt>
      <trkpt lat="44.36379" lon="3.73961">
        <ele>890.8</ele>
        <time>2021-10-22T08:56:53Z</time>
      </trkpt>
      <trkpt lat="44.36374" lon="3.73984">
        <ele>889.84</ele>
        <time>2021-10-22T08:57:04Z</time>
      </trkpt>
      <trkpt lat="44.36376" lon="3.74013">
        <ele>888.88</ele>
        <time>2021-10-22T08:57:21Z</time>
      </trkpt>
      <trkpt lat="44.36373" lon="3.74034">
        <ele>887.43</ele>
        <time>2021-10-22T08:57:32Z</time>
      </trkpt>
      <trkpt lat="44.36373" lon="3.74035">
        <ele>886.95</ele>
        <time>2021-10-22T08:57:35Z</time>
      </trkpt>
      <trkpt lat="44.36371" lon="3.74041">
        <ele>886.95</ele>
        <time>2021-10-22T08:57:38Z</time>
      </trkpt>
      <trkpt lat="44.36368" lon="3.74058">
        <ele>886.47</ele>
        <time>2021-10-22T08:57:49Z</time>
      </trkpt>
      <trkpt lat="44.36367" lon="3.74062">
        <ele>885.99</ele>
        <time>2021-10-22T08:57:52Z</time>
      </trkpt>
      <trkpt lat="44.36361" lon="3.74072">
        <ele>885.99</ele>
        <time>2021-10-22T08:57:58Z</time>
      </trkpt>
      <trkpt lat="44.36358" lon="3.74079">
        <ele>885.99</ele>
        <time>2021-10-22T08:58:02Z</time>
      </trkpt>
      <trkpt lat="44.36347" lon="3.74105">
        <ele>885.03</ele>
        <time>2021-10-22T08:58:15Z</time>
      </trkpt>
      <trkpt lat="44.36348" lon="3.74116">
        <ele>884.07</ele>
        <time>2021-10-22T08:58:22Z</time>
      </trkpt>
      <trkpt lat="44.36341" lon="3.74128">
        <ele>884.07</ele>
        <time>2021-10-22T08:58:30Z</time>
      </trkpt>
      <trkpt lat="44.36339" lon="3.74138">
        <ele>883.11</ele>
        <time>2021-10-22T08:58:35Z</time>
      </trkpt>
      <trkpt lat="44.36333" lon="3.74159">
        <ele>882.63</ele>
        <time>2021-10-22T08:58:48Z</time>
      </trkpt>
      <trkpt lat="44.36333" lon="3.7416">
        <ele>882.63</ele>
        <time>2021-10-22T08:58:49Z</time>
      </trkpt>
      <trkpt lat="44.36326" lon="3.74172">
        <ele>881.67</ele>
        <time>2021-10-22T08:58:56Z</time>
      </trkpt>
      <trkpt lat="44.36322" lon="3.74186">
        <ele>880.71</ele>
        <time>2021-10-22T08:59:03Z</time>
      </trkpt>
      <trkpt lat="44.36313" lon="3.74217">
        <ele>879.26</ele>
        <time>2021-10-22T08:59:18Z</time>
      </trkpt>
      <trkpt lat="44.36309" lon="3.74247">
        <ele>878.3</ele>
        <time>2021-10-22T08:59:30Z</time>
      </trkpt>
      <trkpt lat="44.36308" lon="3.74265">
        <ele>877.34</ele>
        <time>2021-10-22T08:59:37Z</time>
      </trkpt>
      <trkpt lat="44.36304" lon="3.74279">
        <ele>877.34</ele>
        <time>2021-10-22T08:59:49Z</time>
      </trkpt>
      <trkpt lat="44.36303" lon="3.74283">
        <ele>876.86</ele>
        <time>2021-10-22T08:59:51Z</time>
      </trkpt>
      <trkpt lat="44.36293" lon="3.74306">
        <ele>875.42</ele>
        <time>2021-10-22T09:00:03Z</time>
      </trkpt>
      <trkpt lat="44.36292" lon="3.74307">
        <ele>875.42</ele>
        <time>2021-10-22T09:00:04Z</time>
      </trkpt>
      <trkpt lat="44.36289" lon="3.74324">
        <ele>875.9</ele>
        <time>2021-10-22T09:00:14Z</time>
      </trkpt>
      <trkpt lat="44.36283" lon="3.74343">
        <ele>876.38</ele>
        <time>2021-10-22T09:00:26Z</time>
      </trkpt>
      <trkpt lat="44.36282" lon="3.7435">
        <ele>876.86</ele>
        <time>2021-10-22T09:00:41Z</time>
      </trkpt>
      <trkpt lat="44.36299" lon="3.74357">
        <ele>876.86</ele>
        <time>2021-10-22T09:01:08Z</time>
      </trkpt>
      <trkpt lat="44.36292" lon="3.74348">
        <ele>876.38</ele>
        <time>2021-10-22T09:02:38Z</time>
      </trkpt>
      <trkpt lat="44.36304" lon="3.74351">
        <ele>877.82</ele>
        <time>2021-10-22T09:02:47Z</time>
      </trkpt>
      <trkpt lat="44.36307" lon="3.74354">
        <ele>878.3</ele>
        <time>2021-10-22T09:03:00Z</time>
      </trkpt>
      <trkpt lat="44.36305" lon="3.7435">
        <ele>878.78</ele>
        <time>2021-10-22T09:03:05Z</time>
      </trkpt>
      <trkpt lat="44.36297" lon="3.74347">
        <ele>878.3</ele>
        <time>2021-10-22T09:03:10Z</time>
      </trkpt>
      <trkpt lat="44.36278" lon="3.74351">
        <ele>876.86</ele>
        <time>2021-10-22T09:03:22Z</time>
      </trkpt>
      <trkpt lat="44.36272" lon="3.74368">
        <ele>877.34</ele>
        <time>2021-10-22T09:03:34Z</time>
      </trkpt>
      <trkpt lat="44.36263" lon="3.74387">
        <ele>878.3</ele>
        <time>2021-10-22T09:03:45Z</time>
      </trkpt>
      <trkpt lat="44.36257" lon="3.74405">
        <ele>877.82</ele>
        <time>2021-10-22T09:03:57Z</time>
      </trkpt>
      <trkpt lat="44.36247" lon="3.74412">
        <ele>878.3</ele>
        <time>2021-10-22T09:04:10Z</time>
      </trkpt>
      <trkpt lat="44.36243" lon="3.74415">
        <ele>878.78</ele>
        <time>2021-10-22T09:04:14Z</time>
      </trkpt>
      <trkpt lat="44.36232" lon="3.74422">
        <ele>878.78</ele>
        <time>2021-10-22T09:04:21Z</time>
      </trkpt>
      <trkpt lat="44.36243" lon="3.74421">
        <ele>878.78</ele>
        <time>2021-10-22T09:04:33Z</time>
      </trkpt>
      <trkpt lat="44.36246" lon="3.74419">
        <ele>878.3</ele>
        <time>2021-10-22T09:04:36Z</time>
      </trkpt>
      <trkpt lat="44.36253" lon="3.7441">
        <ele>877.82</ele>
        <time>2021-10-22T09:04:42Z</time>
      </trkpt>
      <trkpt lat="44.36258" lon="3.74405">
        <ele>878.3</ele>
        <time>2021-10-22T09:04:46Z</time>
      </trkpt>
      <trkpt lat="44.36268" lon="3.74384">
        <ele>878.78</ele>
        <time>2021-10-22T09:04:56Z</time>
      </trkpt>
      <trkpt lat="44.36275" lon="3.74363">
        <ele>877.34</ele>
        <time>2021-10-22T09:05:09Z</time>
      </trkpt>
      <trkpt lat="44.36277" lon="3.74358">
        <ele>877.34</ele>
        <time>2021-10-22T09:05:12Z</time>
      </trkpt>
      <trkpt lat="44.36278" lon="3.74353">
        <ele>877.34</ele>
        <time>2021-10-22T09:05:15Z</time>
      </trkpt>
      <trkpt lat="44.36282" lon="3.74346">
        <ele>876.86</ele>
        <time>2021-10-22T09:05:21Z</time>
      </trkpt>
      <trkpt lat="44.36288" lon="3.74348">
        <ele>877.34</ele>
        <time>2021-10-22T09:05:25Z</time>
      </trkpt>
      <trkpt lat="44.36303" lon="3.74353">
        <ele>878.3</ele>
        <time>2021-10-22T09:05:34Z</time>
      </trkpt>
      <trkpt lat="44.36308" lon="3.74354">
        <ele>878.78</ele>
        <time>2021-10-22T09:05:38Z</time>
      </trkpt>
      <trkpt lat="44.36315" lon="3.74356">
        <ele>878.78</ele>
        <time>2021-10-22T09:05:42Z</time>
      </trkpt>
      <trkpt lat="44.36324" lon="3.74361">
        <ele>878.3</ele>
        <time>2021-10-22T09:05:47Z</time>
      </trkpt>
      <trkpt lat="44.36327" lon="3.74374">
        <ele>877.82</ele>
        <time>2021-10-22T09:05:54Z</time>
      </trkpt>
      <trkpt lat="44.36329" lon="3.74376">
        <ele>877.34</ele>
        <time>2021-10-22T09:06:06Z</time>
      </trkpt>
      <trkpt lat="44.3633" lon="3.74373">
        <ele>877.34</ele>
        <time>2021-10-22T09:06:25Z</time>
      </trkpt>
      <trkpt lat="44.36331" lon="3.74372">
        <ele>877.34</ele>
        <time>2021-10-22T09:06:52Z</time>
      </trkpt>
      <trkpt lat="44.36333" lon="3.74374">
        <ele>876.86</ele>
        <time>2021-10-22T09:07:21Z</time>
      </trkpt>
      <trkpt lat="44.36333" lon="3.74374">
        <ele>876.86</ele>
        <time>2021-10-22T09:07:33Z</time>
      </trkpt>
      <trkpt lat="44.36324" lon="3.74394">
        <ele>877.34</ele>
        <time>2021-10-22T09:07:47Z</time>
      </trkpt>
      <trkpt lat="44.36322" lon="3.74408">
        <ele>877.34</ele>
        <time>2021-10-22T09:07:57Z</time>
      </trkpt>
      <trkpt lat="44.36319" lon="3.74413">
        <ele>877.34</ele>
        <time>2021-10-22T09:08:00Z</time>
      </trkpt>
      <trkpt lat="44.36316" lon="3.74421">
        <ele>876.86</ele>
        <time>2021-10-22T09:08:11Z</time>
      </trkpt>
      <trkpt lat="44.36316" lon="3.74419">
        <ele>876.86</ele>
        <time>2021-10-22T09:08:26Z</time>
      </trkpt>
      <trkpt lat="44.36316" lon="3.74419">
        <ele>876.38</ele>
        <time>2021-10-22T09:08:47Z</time>
      </trkpt>
      <trkpt lat="44.36316" lon="3.74419">
        <ele>876.86</ele>
        <time>2021-10-22T09:09:21Z</time>
      </trkpt>
      <trkpt lat="44.36316" lon="3.74419">
        <ele>876.38</ele>
        <time>2021-10-22T09:09:51Z</time>
      </trkpt>
      <trkpt lat="44.36316" lon="3.74419">
        <ele>875.9</ele>
        <time>2021-10-22T09:10:20Z</time>
      </trkpt>
      <trkpt lat="44.36319" lon="3.74419">
        <ele>877.34</ele>
        <time>2021-10-22T09:10:34Z</time>
      </trkpt>
      <trkpt lat="44.36321" lon="3.74421">
        <ele>877.34</ele>
        <time>2021-10-22T09:10:46Z</time>
      </trkpt>
      <trkpt lat="44.36322" lon="3.74421">
        <ele>877.34</ele>
        <time>2021-10-22T09:10:51Z</time>
      </trkpt>
      <trkpt lat="44.36316" lon="3.74417">
        <ele>876.38</ele>
        <time>2021-10-22T09:11:02Z</time>
      </trkpt>
      <trkpt lat="44.36316" lon="3.74417">
        <ele>876.38</ele>
        <time>2021-10-22T09:11:33Z</time>
      </trkpt>
      <trkpt lat="44.36316" lon="3.74417">
        <ele>875.9</ele>
        <time>2021-10-22T09:12:00Z</time>
      </trkpt>
      <trkpt lat="44.36321" lon="3.74411">
        <ele>875.9</ele>
        <time>2021-10-22T09:12:25Z</time>
      </trkpt>
      <trkpt lat="44.36322" lon="3.74408">
        <ele>875.9</ele>
        <time>2021-10-22T09:12:52Z</time>
      </trkpt>
      <trkpt lat="44.3632" lon="3.74411">
        <ele>875.42</ele>
        <time>2021-10-22T09:13:21Z</time>
      </trkpt>
      <trkpt lat="44.3632" lon="3.74411">
        <ele>875.42</ele>
        <time>2021-10-22T09:13:52Z</time>
      </trkpt>
      <trkpt lat="44.3632" lon="3.74411">
        <ele>875.42</ele>
        <time>2021-10-22T09:14:27Z</time>
      </trkpt>
      <trkpt lat="44.3632" lon="3.74411">
        <ele>875.9</ele>
        <time>2021-10-22T09:15:05Z</time>
      </trkpt>
      <trkpt lat="44.36319" lon="3.74412">
        <ele>875.9</ele>
        <time>2021-10-22T09:15:37Z</time>
      </trkpt>
      <trkpt lat="44.36319" lon="3.74413">
        <ele>875.42</ele>
        <time>2021-10-22T09:16:05Z</time>
      </trkpt>
      <trkpt lat="44.36316" lon="3.74413">
        <ele>876.38</ele>
        <time>2021-10-22T09:16:32Z</time>
      </trkpt>
    </trkseg>
  </trk>
</gpx>